Observation data for Mertzon on 02/11/2019      Previous  Date  Next       Current Mesonet Observations  Soil Data  Daily Summary Page  Observations in Plain Language
KME1 110600Z 26003KT 08/07 A2997 RMK A01 T00760073  RH  098%=      5-min Rain = 0
KME1 110601Z 25003KT 08/07 A2997 RMK A01 T00750073  RH  099%=      5-min Rain = 0
KME1 110602Z 26002KT 08/07 A2997 RMK A01 T00750073  RH  099%=      5-min Rain = 0
KME1 110603Z 27001KT 08/07 A2997 RMK A01 T00750073  RH  099%=      5-min Rain = 0
KME1 110604Z 26002KT 08/07 A2996 RMK A01 T00750074  RH  099%=      5-min Rain = 0
KME1 110605Z 26002KT 07/07 A2996 RMK A01 T00740073  RH  099%=      5-min Rain = 0
KME1 110606Z 28002KT 08/07 A2996 RMK A01 T00750074  RH  100%=      5-min Rain = 0
KME1 110607Z 27002KT 08/07 A2996 RMK A01 T00750074  RH  100%=      5-min Rain = 0
KME1 110608Z 25002KT 07/07 A2996 RMK A01 T00740074  RH  100%=      5-min Rain = 0
KME1 110609Z 25002KT 07/07 A2996 RMK A01 T00740073  RH  100%=      5-min Rain = 0
KME1 110610Z 26001KT 07/07 A2996 RMK A01 T00740074  RH  100%=      5-min Rain = 0
KME1 110611Z 28002KT 07/07 A2995 RMK A01 T00740074  RH  100%=      5-min Rain = 0
KME1 110612Z 28003KT 07/07 A2995 RMK A01 T00740074  RH  100%=      5-min Rain = 0
KME1 110613Z 30003KT 07/07 A2995 RMK A01 T00740074  RH  100%=      5-min Rain = 0
KME1 110614Z 32003KT 07/07 A2995 RMK A01 T00740073  RH  100%=      5-min Rain = 0
KME1 110615Z 32004KT 07/07 A2995 RMK A01 T00730072  RH  100%=      5-min Rain = 0
KME1 110616Z 32004KT 07/07 A2995 RMK A01 T00730072  RH  099%=      5-min Rain = 0
KME1 110617Z 32004KT 07/07 A2995 RMK A01 T00730072  RH  100%=      5-min Rain = 0
KME1 110618Z 32004KT 07/07 A2995 RMK A01 T00720072  RH  100%=      5-min Rain = 0
KME1 110619Z 33004KT 07/07 A2995 RMK A01 T00720072  RH  100%=      5-min Rain = 0
KME1 110620Z 33004KT 07/07 A2994 RMK A01 T00720072  RH  100%=      5-min Rain = 0
KME1 110621Z 32004KT 07/07 A2994 RMK A01 T00720072  RH  100%=      5-min Rain = 0
KME1 110622Z 32005KT 07/07 A2994 RMK A01 T00710071  RH  100%=      5-min Rain = 0
KME1 110623Z 31004KT 07/07 A2994 RMK A01 T00710071  RH  100%=      5-min Rain = 0
KME1 110624Z 31004KT 07/07 A2995 RMK A01 T00710071  RH  100%=      5-min Rain = 0
KME1 110625Z 30004KT 07/07 A2995 RMK A01 T00710071  RH  100%=      5-min Rain = 0
KME1 110626Z 30003KT 07/07 A2994 RMK A01 T00710071  RH  100%=      5-min Rain = 0
KME1 110627Z 31003KT 07/07 A2994 RMK A01 T00710071  RH  100%=      5-min Rain = 0
KME1 110628Z 30002KT 07/07 A2994 RMK A01 T00710071  RH  100%=      5-min Rain = 0
KME1 110629Z 28002KT 07/07 A2995 RMK A01 T00710072  RH  100%=      5-min Rain = 0
KME1 110630Z 26003KT 07/07 A2996 RMK A01 T00710071  RH  100%=      5-min Rain = 0
KME1 110631Z 24003KT 07/07 A2996 RMK A01 T00720072  RH  100%=      5-min Rain = 0
KME1 110632Z 21005KT 07/07 A2997 RMK A01 T00720072  RH  100%=      5-min Rain = 0
KME1 110633Z 20008KT 07/07 A2998 RMK A01 T00720072  RH  100%=      5-min Rain = 0
KME1 110634Z 20007KT 07/07 A2998 RMK A01 T00720072  RH  100%=      5-min Rain = 0
KME1 110635Z 20004KT 07/07 A2997 RMK A01 T00720072  RH  100%=      5-min Rain = 0
KME1 110636Z 21004KT 07/07 A2997 RMK A01 T00720072  RH  100%=      5-min Rain = 0
KME1 110637Z 20004KT 07/07 A2997 RMK A01 T00720072  RH  100%=      5-min Rain = 0
KME1 110638Z 20004KT 07/07 A2997 RMK A01 T00720072  RH  100%=      5-min Rain = 0
KME1 110639Z 21003KT 07/07 A2997 RMK A01 T00720072  RH  100%=      5-min Rain = 0
KME1 110640Z 21004KT 07/07 A2997 RMK A01 T00720072  RH  100%=      5-min Rain = 0
KME1 110641Z 21004KT 07/07 A2997 RMK A01 T00720072  RH  100%=      5-min Rain = 0
KME1 110642Z 21003KT 07/07 A2997 RMK A01 T00730073  RH  100%=      5-min Rain = 0
KME1 110643Z 20003KT 07/07 A2997 RMK A01 T00730073  RH  100%=      5-min Rain = 0
KME1 110644Z 20003KT 07/07 A2997 RMK A01 T00730073  RH  100%=      5-min Rain = 0
KME1 110645Z 20004KT 07/07 A2997 RMK A01 T00730073  RH  100%=      5-min Rain = 0
KME1 110646Z 20004KT 07/07 A2997 RMK A01 T00730073  RH  100%=      5-min Rain = 0
KME1 110647Z 20003KT 07/07 A2996 RMK A01 T00730073  RH  100%=      5-min Rain = 0
KME1 110648Z 21004KT 07/07 A2996 RMK A01 T00730072  RH  099%=      5-min Rain = 0
KME1 110649Z 20004KT 07/07 A2997 RMK A01 T00730072  RH  099%=      5-min Rain = 0
KME1 110650Z 20004KT 07/07 A2996 RMK A01 T00730071  RH  099%=      5-min Rain = 0
KME1 110651Z 19004KT 07/07 A2996 RMK A01 T00730070  RH  098%=      5-min Rain = 0
KME1 110652Z 19004KT 07/07 A2996 RMK A01 T00730070  RH  098%=      5-min Rain = 0
KME1 110653Z 19003KT 07/07 A2996 RMK A01 T00740070  RH  098%=      5-min Rain = 0
KME1 110654Z 19004KT 07/07 A2996 RMK A01 T00730069  RH  097%=      5-min Rain = 0
KME1 110655Z 19004KT 07/07 A2996 RMK A01 T00740069  RH  097%=      5-min Rain = 0
KME1 110656Z 20005KT 07/07 A2996 RMK A01 T00740069  RH  097%=      5-min Rain = 0
KME1 110657Z 22006KT 07/07 A2997 RMK A01 T00740069  RH  096%=      5-min Rain = 0
KME1 110658Z 23008KT 07/07 A2998 RMK A01 T00740069  RH  096%=      5-min Rain = 0
KME1 110659Z 23007KT 07/07 A2998 RMK A01 T00740068  RH  096%=      5-min Rain = 0
KME1 110700Z 22007KT 08/07 A2998 RMK A01 T00750068  RH  095%=      5-min Rain = 0
KME1 110701Z 23006KT 08/07 A2997 RMK A01 T00750068  RH  095%=      5-min Rain = 0
KME1 110702Z 22007KT 08/07 A2997 RMK A01 T00750066  RH  094%=      5-min Rain = 0
KME1 110703Z 23008KT 08/07 A2997 RMK A01 T00760065  RH  093%=      5-min Rain = 0
KME1 110704Z 22006KT 08/06 A2997 RMK A01 T00760064  RH  092%=      5-min Rain = 0
KME1 110705Z 22007KT 08/06 A2996 RMK A01 T00770063  RH  091%=      5-min Rain = 0
KME1 110706Z 21006KT 08/06 A2996 RMK A01 T00770062  RH  090%=      5-min Rain = 0
KME1 110707Z 21007KT 08/06 A2996 RMK A01 T00770062  RH  090%=      5-min Rain = 0
KME1 110708Z 20007KT 08/06 A2996 RMK A01 T00770062  RH  090%=      5-min Rain = 0
KME1 110709Z 18006KT 08/06 A2996 RMK A01 T00770061  RH  090%=      5-min Rain = 0
KME1 110710Z 18006KT 08/06 A2995 RMK A01 T00770061  RH  090%=      5-min Rain = 0
KME1 110711Z 19006KT 08/06 A2995 RMK A01 T00770061  RH  090%=      5-min Rain = 0
KME1 110712Z 20006KT 08/06 A2995 RMK A01 T00760061  RH  090%=      5-min Rain = 0
KME1 110713Z 20006KT 08/06 A2995 RMK A01 T00760060  RH  090%=      5-min Rain = 0
KME1 110714Z 20006KT 08/06 A2995 RMK A01 T00770061  RH  090%=      5-min Rain = 0
KME1 110715Z 20007KT 08/06 A2995 RMK A01 T00760061  RH  090%=      5-min Rain = 0
KME1 110716Z 20007KT 08/06 A2995 RMK A01 T00760061  RH  090%=      5-min Rain = 0
KME1 110717Z 20007KT 08/06 A2996 RMK A01 T00760061  RH  090%=      5-min Rain = 0
KME1 110718Z 20008KT 08/06 A2996 RMK A01 T00760060  RH  089%=      5-min Rain = 0
KME1 110719Z 19007KT 08/06 A2996 RMK A01 T00760060  RH  089%=      5-min Rain = 0
KME1 110720Z 20008KT 08/06 A2996 RMK A01 T00760060  RH  089%=      5-min Rain = 0
KME1 110721Z 19008KT 08/06 A2995 RMK A01 T00770060  RH  089%=      5-min Rain = 0
KME1 110722Z 19006KT 08/06 A2995 RMK A01 T00760060  RH  089%=      5-min Rain = 0
KME1 110723Z 20005KT 08/06 A2995 RMK A01 T00760060  RH  090%=      5-min Rain = 0
KME1 110724Z 20006KT 08/06 A2995 RMK A01 T00750060  RH  090%=      5-min Rain = 0
KME1 110725Z 19006KT 08/06 A2995 RMK A01 T00750060  RH  090%=      5-min Rain = 0
KME1 110726Z 20006KT 08/06 A2995 RMK A01 T00750060  RH  090%=      5-min Rain = 0
KME1 110727Z 19005KT 08/06 A2994 RMK A01 T00750060  RH  090%=      5-min Rain = 0
KME1 110728Z 19005KT 08/06 A2994 RMK A01 T00750060  RH  090%=      5-min Rain = 0
KME1 110729Z 19006KT 07/06 A2994 RMK A01 T00740059  RH  090%=      5-min Rain = 0
KME1 110730Z 19006KT 08/06 A2994 RMK A01 T00750059  RH  090%=      5-min Rain = 0
KME1 110731Z 20007KT 08/06 A2995 RMK A01 T00750059  RH  090%=      5-min Rain = 0
KME1 110732Z 19006KT 07/06 A2995 RMK A01 T00740059  RH  090%=      5-min Rain = 0
KME1 110733Z 19008KT 07/06 A2995 RMK A01 T00740059  RH  090%=      5-min Rain = 0
KME1 110734Z 19008KT 08/06 A2995 RMK A01 T00750060  RH  091%=      5-min Rain = 0
KME1 110735Z 19008KT 08/06 A2995 RMK A01 T00750061  RH  091%=      5-min Rain = 0
KME1 110736Z 19008KT 08/06 A2995 RMK A01 T00750061  RH  091%=      5-min Rain = 0
KME1 110737Z 19006KT 08/06 A2995 RMK A01 T00750061  RH  091%=      5-min Rain = 0
KME1 110738Z 18006KT 08/06 A2995 RMK A01 T00750061  RH  091%=      5-min Rain = 0
KME1 110739Z 19008KT 08/06 A2995 RMK A01 T00750061  RH  091%=      5-min Rain = 0
KME1 110740Z 19008KT 08/06 A2995 RMK A01 T00750061  RH  091%=      5-min Rain = 0
KME1 110741Z 19010KT 07/06 A2995 RMK A01 T00740061  RH  091%=      5-min Rain = 0
KME1 110742Z 19010KT 08/06 A2995 RMK A01 T00750061  RH  091%=      5-min Rain = 0
KME1 110743Z 18009KT 08/06 A2995 RMK A01 T00750061  RH  091%=      5-min Rain = 0
KME1 110744Z 19008KT 08/06 A2995 RMK A01 T00750061  RH  091%=      5-min Rain = 0
KME1 110745Z 18010KT 07/06 A2995 RMK A01 T00740061  RH  091%=      5-min Rain = 0
KME1 110746Z 19009KT 07/06 A2995 RMK A01 T00740061  RH  091%=      5-min Rain = 0
KME1 110747Z 19009KT 08/06 A2995 RMK A01 T00750061  RH  091%=      5-min Rain = 0
KME1 110748Z 19009KT 07/06 A2995 RMK A01 T00740060  RH  091%=      5-min Rain = 0
KME1 110749Z 19008KT 08/06 A2995 RMK A01 T00750060  RH  091%=      5-min Rain = 0
KME1 110750Z 19008KT 07/06 A2995 RMK A01 T00740060  RH  091%=      5-min Rain = 0
KME1 110751Z 19007KT 07/06 A2995 RMK A01 T00740060  RH  091%=      5-min Rain = 0
KME1 110752Z 19008KT 08/06 A2995 RMK A01 T00750060  RH  091%=      5-min Rain = 0
KME1 110753Z 19007KT 07/06 A2995 RMK A01 T00740060  RH  091%=      5-min Rain = 0
KME1 110754Z 18008KT 08/06 A2995 RMK A01 T00750060  RH  091%=      5-min Rain = 0
KME1 110755Z 18008KT 08/06 A2995 RMK A01 T00750060  RH  090%=      5-min Rain = 0
KME1 110756Z 18008KT 08/06 A2995 RMK A01 T00750060  RH  090%=      5-min Rain = 0
KME1 110757Z 18008KT 08/06 A2995 RMK A01 T00750060  RH  090%=      5-min Rain = 0
KME1 110758Z 18007KT 08/06 A2995 RMK A01 T00750060  RH  090%=      5-min Rain = 0
KME1 110759Z 18007KT 08/06 A2995 RMK A01 T00750060  RH  090%=      5-min Rain = 0
KME1 110800Z 19007KT 08/06 A2995 RMK A01 T00750059  RH  090%=      5-min Rain = 0
KME1 110801Z 19005KT 08/06 A2994 RMK A01 T00750060  RH  090%=      5-min Rain = 0
KME1 110802Z 18006KT 08/06 A2994 RMK A01 T00750059  RH  090%=      5-min Rain = 0
KME1 110803Z 20007KT 08/06 A2994 RMK A01 T00750060  RH  090%=      5-min Rain = 0
KME1 110804Z 19007KT 08/06 A2994 RMK A01 T00750059  RH  090%=      5-min Rain = 0
KME1 110805Z 20008KT 08/06 A2994 RMK A01 T00760060  RH  090%=      5-min Rain = 0
KME1 110806Z 20007KT 08/06 A2994 RMK A01 T00760059  RH  089%=      5-min Rain = 0
KME1 110807Z 20008KT 08/06 A2995 RMK A01 T00750059  RH  089%=      5-min Rain = 0
KME1 110808Z 19009KT 08/06 A2995 RMK A01 T00760059  RH  089%=      5-min Rain = 0
KME1 110809Z 20008G13KT 08/06 A2995 RMK A01 T00760059  RH  089%=      5-min Rain = 0
KME1 110810Z 20009KT 08/06 A2995 RMK A01 T00760059  RH  089%=      5-min Rain = 0
KME1 110811Z 20009KT 08/06 A2994 RMK A01 T00760059  RH  089%=      5-min Rain = 0
KME1 110812Z 20009KT 08/06 A2994 RMK A01 T00760059  RH  089%=      5-min Rain = 0
KME1 110813Z 19011KT 08/06 A2994 RMK A01 T00760059  RH  089%=      5-min Rain = 0
KME1 110814Z 19010G15KT 08/06 A2994 RMK A01 T00760059  RH  089%=      5-min Rain = 0
KME1 110815Z 19009KT 08/06 A2994 RMK A01 T00760059  RH  089%=      5-min Rain = 0
KME1 110816Z 20012KT 08/06 A2994 RMK A01 T00760059  RH  089%=      5-min Rain = 0
KME1 110817Z 19010KT 08/06 A2994 RMK A01 T00760059  RH  089%=      5-min Rain = 0
KME1 110818Z 19011G16KT 08/06 A2994 RMK A01 T00760059  RH  089%=      5-min Rain = 0
KME1 110819Z 20011KT 08/06 A2994 RMK A01 T00760059  RH  089%=      5-min Rain = 0
KME1 110820Z 20009KT 08/06 A2994 RMK A01 T00760059  RH  089%=      5-min Rain = 0
KME1 110821Z 20012KT 08/06 A2994 RMK A01 T00760059  RH  089%=      5-min Rain = 0
KME1 110822Z 20010KT 08/06 A2994 RMK A01 T00760059  RH  089%=      5-min Rain = 0
KME1 110823Z 20014KT 08/06 A2994 RMK A01 T00760059  RH  089%=      5-min Rain = 0
KME1 110824Z 20013G19KT 08/06 A2994 RMK A01 T00760058  RH  089%=      5-min Rain = 0
KME1 110825Z 20011KT 08/06 A2994 RMK A01 T00760058  RH  089%=      5-min Rain = 0
KME1 110826Z 20012KT 08/06 A2994 RMK A01 T00760058  RH  089%=      5-min Rain = 0
KME1 110827Z 19012KT 08/06 A2994 RMK A01 T00760058  RH  089%=      5-min Rain = 0
KME1 110828Z 19009KT 08/06 A2993 RMK A01 T00760058  RH  089%=      5-min Rain = 0
KME1 110829Z 20010KT 08/06 A2993 RMK A01 T00760059  RH  089%=      5-min Rain = 0
KME1 110830Z 19011KT 08/06 A2993 RMK A01 T00760059  RH  089%=      5-min Rain = 0
KME1 110831Z 19014KT 08/06 A2993 RMK A01 T00760059  RH  089%=      5-min Rain = 0
KME1 110832Z 18013KT 08/06 A2993 RMK A01 T00750058  RH  089%=      5-min Rain = 0
KME1 110833Z 18012KT 08/06 A2993 RMK A01 T00750058  RH  089%=      5-min Rain = 0
KME1 110834Z 19013KT 08/06 A2992 RMK A01 T00750058  RH  089%=      5-min Rain = 0
KME1 110835Z 19013KT 08/06 A2992 RMK A01 T00750058  RH  089%=      5-min Rain = 0
KME1 110836Z 19013KT 08/06 A2993 RMK A01 T00760058  RH  089%=      5-min Rain = 0
KME1 110837Z 19014KT 08/06 A2992 RMK A01 T00750058  RH  089%=      5-min Rain = 0
KME1 110838Z 19013G18KT 08/06 A2992 RMK A01 T00750058  RH  089%=      5-min Rain = 0
KME1 110839Z 19013KT 08/06 A2992 RMK A01 T00750058  RH  089%=      5-min Rain = 0
KME1 110840Z 19012KT 08/06 A2992 RMK A01 T00760058  RH  089%=      5-min Rain = 0
KME1 110841Z 18013KT 08/06 A2992 RMK A01 T00750058  RH  089%=      5-min Rain = 0
KME1 110842Z 19014KT 08/06 A2992 RMK A01 T00750058  RH  089%=      5-min Rain = 0
KME1 110843Z 19013KT 08/06 A2992 RMK A01 T00750057  RH  089%=      5-min Rain = 0
KME1 110844Z 19013KT 08/06 A2991 RMK A01 T00750057  RH  089%=      5-min Rain = 0
KME1 110845Z 19015KT 08/06 A2991 RMK A01 T00750057  RH  088%=      5-min Rain = 0
KME1 110846Z 19012KT 08/06 A2991 RMK A01 T00750057  RH  088%=      5-min Rain = 0
KME1 110847Z 19012KT 08/06 A2992 RMK A01 T00750057  RH  088%=      5-min Rain = 0
KME1 110848Z 19012KT 08/06 A2991 RMK A01 T00750057  RH  088%=      5-min Rain = 0
KME1 110849Z 19013KT 08/06 A2991 RMK A01 T00750057  RH  088%=      5-min Rain = 0
KME1 110850Z 19013KT 07/06 A2991 RMK A01 T00740057  RH  088%=      5-min Rain = 0
KME1 110851Z 19014KT 07/06 A2992 RMK A01 T00740056  RH  088%=      5-min Rain = 0
KME1 110852Z 20013KT 08/06 A2992 RMK A01 T00750056  RH  088%=      5-min Rain = 0
KME1 110853Z 19014KT 08/06 A2992 RMK A01 T00750056  RH  088%=      5-min Rain = 0
KME1 110854Z 20012KT 08/06 A2992 RMK A01 T00750056  RH  088%=      5-min Rain = 0
KME1 110855Z 20011KT 07/06 A2992 RMK A01 T00740055  RH  087%=      5-min Rain = 0
KME1 110856Z 20012KT 08/06 A2992 RMK A01 T00750055  RH  087%=      5-min Rain = 0
KME1 110857Z 19013KT 07/06 A2992 RMK A01 T00740055  RH  087%=      5-min Rain = 0
KME1 110858Z 19012KT 08/06 A2992 RMK A01 T00750055  RH  087%=      5-min Rain = 0
KME1 110859Z 19012KT 08/06 A2991 RMK A01 T00750055  RH  087%=      5-min Rain = 0
KME1 110900Z 19014KT 08/05 A2991 RMK A01 T00750054  RH  087%=      5-min Rain = 0
KME1 110901Z 19012KT 08/05 A2991 RMK A01 T00750054  RH  087%=      5-min Rain = 0
KME1 110902Z 19013G18KT 07/05 A2991 RMK A01 T00740054  RH  087%=      5-min Rain = 0
KME1 110903Z 19014KT 08/05 A2991 RMK A01 T00750054  RH  087%=      5-min Rain = 0
KME1 110904Z 19013KT 08/05 A2991 RMK A01 T00750054  RH  086%=      5-min Rain = 0
KME1 110905Z 19012KT 08/05 A2991 RMK A01 T00750054  RH  086%=      5-min Rain = 0
KME1 110906Z 19015KT 08/05 A2991 RMK A01 T00750054  RH  086%=      5-min Rain = 0
KME1 110907Z 19014KT 08/05 A2991 RMK A01 T00750053  RH  086%=      5-min Rain = 0
KME1 110908Z 19013KT 08/05 A2991 RMK A01 T00750053  RH  086%=      5-min Rain = 0
KME1 110909Z 19014KT 08/05 A2991 RMK A01 T00750053  RH  086%=      5-min Rain = 0
KME1 110910Z 19014KT 08/05 A2991 RMK A01 T00760054  RH  086%=      5-min Rain = 0
KME1 110911Z 20013KT 08/05 A2991 RMK A01 T00760054  RH  086%=      5-min Rain = 0
KME1 110912Z 19010KT 08/05 A2991 RMK A01 T00750053  RH  086%=      5-min Rain = 0
KME1 110913Z 19011KT 08/05 A2991 RMK A01 T00750054  RH  086%=      5-min Rain = 0
KME1 110914Z 19013KT 08/05 A2991 RMK A01 T00760054  RH  086%=      5-min Rain = 0
KME1 110915Z 20012KT 08/05 A2991 RMK A01 T00750054  RH  086%=      5-min Rain = 0
KME1 110916Z 19013KT 08/05 A2991 RMK A01 T00750054  RH  086%=      5-min Rain = 0
KME1 110917Z 20011KT 08/05 A2991 RMK A01 T00750054  RH  086%=      5-min Rain = 0
KME1 110918Z 20010KT 08/05 A2991 RMK A01 T00760054  RH  086%=      5-min Rain = 0
KME1 110919Z 20010KT 08/05 A299 RMK A01 T00750054  RH  086%=      5-min Rain = 0
KME1 110920Z 19012KT 08/05 A299 RMK A01 T00750054  RH  086%=      5-min Rain = 0
KME1 110921Z 19010KT 08/05 A2991 RMK A01 T00750054  RH  086%=      5-min Rain = 0
KME1 110922Z 19011KT 08/05 A2991 RMK A01 T00750054  RH  086%=      5-min Rain = 0
KME1 110923Z 19013KT 08/05 A2991 RMK A01 T00750054  RH  086%=      5-min Rain = 0
KME1 110924Z 19012KT 08/05 A2991 RMK A01 T00750054  RH  086%=      5-min Rain = 0
KME1 110925Z 19012G17KT 08/05 A2991 RMK A01 T00750054  RH  087%=      5-min Rain = 0
KME1 110926Z 19017KT 08/05 A2991 RMK A01 T00750054  RH  087%=      5-min Rain = 0
KME1 110927Z 19016KT 08/05 A2991 RMK A01 T00750054  RH  086%=      5-min Rain = 0
KME1 110928Z 19014KT 08/05 A2991 RMK A01 T00750054  RH  086%=      5-min Rain = 0
KME1 110929Z 19014G19KT 08/05 A299 RMK A01 T00750053  RH  086%=      5-min Rain = 0
KME1 110930Z 20012KT 08/05 A299 RMK A01 T00750053  RH  086%=      5-min Rain = 0
KME1 110931Z 20013KT 08/05 A2991 RMK A01 T00750054  RH  086%=      5-min Rain = 0
KME1 110932Z 19011KT 08/05 A2991 RMK A01 T00750054  RH  086%=      5-min Rain = 0
KME1 110933Z 19012KT 08/05 A2991 RMK A01 T00750054  RH  087%=      5-min Rain = 0
KME1 110934Z 19012KT 08/06 A2991 RMK A01 T00750055  RH  087%=      5-min Rain = 0
KME1 110935Z 19013KT 08/05 A2991 RMK A01 T00750054  RH  087%=      5-min Rain = 0
KME1 110936Z 19015KT 08/05 A2991 RMK A01 T00750054  RH  087%=      5-min Rain = 0
KME1 110937Z 19014KT 08/05 A2991 RMK A01 T00750054  RH  087%=      5-min Rain = 0
KME1 110938Z 19012KT 08/05 A2991 RMK A01 T00750054  RH  086%=      5-min Rain = 0
KME1 110939Z 19013KT 08/05 A2991 RMK A01 T00750054  RH  087%=      5-min Rain = 0
KME1 110940Z 20015KT 08/05 A2991 RMK A01 T00750054  RH  087%=      5-min Rain = 0
KME1 110941Z 19013KT 08/06 A2991 RMK A01 T00750055  RH  087%=      5-min Rain = 0
KME1 110942Z 20014G19KT 08/05 A2991 RMK A01 T00750054  RH  087%=      5-min Rain = 0
KME1 110943Z 19016KT 08/05 A2991 RMK A01 T00750054  RH  087%=      5-min Rain = 0
KME1 110944Z 19016KT 08/06 A2991 RMK A01 T00750055  RH  087%=      5-min Rain = 0
KME1 110945Z 20014KT 08/06 A2991 RMK A01 T00750055  RH  087%=      5-min Rain = 0
KME1 110946Z 20014G21KT 08/06 A2991 RMK A01 T00750055  RH  087%=      5-min Rain = 0
KME1 110947Z 20014KT 08/06 A2991 RMK A01 T00750055  RH  088%=      5-min Rain = 0
KME1 110948Z 19015G22KT 08/06 A299 RMK A01 T00750055  RH  088%=      5-min Rain = 0
KME1 110949Z 19015KT 07/06 A299 RMK A01 T00740055  RH  088%=      5-min Rain = 0
KME1 110950Z 19014KT 07/06 A299 RMK A01 T00740056  RH  088%=      5-min Rain = 0
KME1 110951Z 20017G22KT 08/06 A299 RMK A01 T00750056  RH  088%=      5-min Rain = 0
KME1 110952Z 19015KT 08/06 A299 RMK A01 T00750056  RH  088%=      5-min Rain = 0
KME1 110953Z 19015KT 07/06 A299 RMK A01 T00740056  RH  088%=      5-min Rain = 0
KME1 110954Z 19015KT 07/06 A299 RMK A01 T00740056  RH  088%=      5-min Rain = 0
KME1 110955Z 20014KT 07/06 A299 RMK A01 T00740056  RH  088%=      5-min Rain = 0
KME1 110956Z 19013KT 07/06 A299 RMK A01 T00740057  RH  089%=      5-min Rain = 0
KME1 110957Z 19015KT 07/06 A299 RMK A01 T00740057  RH  089%=      5-min Rain = 0
KME1 110958Z 20016G21KT 07/06 A299 RMK A01 T00740057  RH  089%=      5-min Rain = 0
KME1 110959Z 19014KT 07/06 A299 RMK A01 T00740057  RH  089%=      5-min Rain = 0
KME1 111000Z 19016KT 07/06 A299 RMK A01 T00730057  RH  089%=      5-min Rain = 0
KME1 111001Z 19016KT 07/06 A299 RMK A01 T00740057  RH  089%=      5-min Rain = 0
KME1 111002Z 20015G20KT 07/06 A299 RMK A01 T00740057  RH  089%=      5-min Rain = 0
KME1 111003Z 20014KT 07/06 A2991 RMK A01 T00740057  RH  089%=      5-min Rain = 0
KME1 111004Z 20014G19KT 07/06 A299 RMK A01 T00740057  RH  089%=      5-min Rain = 0
KME1 111005Z 20012KT 07/06 A2991 RMK A01 T00740057  RH  089%=      5-min Rain = 0
KME1 111006Z 19014G19KT 07/06 A299 RMK A01 T00740058  RH  090%=      5-min Rain = 0
KME1 111007Z 20016KT 07/06 A299 RMK A01 T00740058  RH  090%=      5-min Rain = 0
KME1 111008Z 20014KT 07/06 A299 RMK A01 T00740058  RH  090%=      5-min Rain = 0
KME1 111009Z 20014KT 07/06 A299 RMK A01 T00730057  RH  090%=      5-min Rain = 0
KME1 111010Z 19013KT 07/06 A299 RMK A01 T00730058  RH  090%=      5-min Rain = 0
KME1 111011Z 20011KT 07/06 A299 RMK A01 T00730058  RH  090%=      5-min Rain = 0
KME1 111012Z 20010G15KT 07/06 A299 RMK A01 T00730058  RH  090%=      5-min Rain = 0
KME1 111013Z 20012G17KT 07/06 A299 RMK A01 T00730058  RH  090%=      5-min Rain = 0
KME1 111014Z 20014KT 07/06 A299 RMK A01 T00720058  RH  091%=      5-min Rain = 0
KME1 111015Z 20012KT 07/06 A2989 RMK A01 T00720058  RH  091%=      5-min Rain = 0
KME1 111016Z 19013KT 07/06 A2989 RMK A01 T00720058  RH  091%=      5-min Rain = 0
KME1 111017Z 19012KT 07/06 A2989 RMK A01 T00720058  RH  091%=      5-min Rain = 0
KME1 111018Z 19011G17KT 07/06 A2989 RMK A01 T00720058  RH  091%=      5-min Rain = 0
KME1 111019Z 19011KT 07/06 A2989 RMK A01 T00720058  RH  091%=      5-min Rain = 0
KME1 111020Z 20009KT 07/06 A2989 RMK A01 T00720059  RH  091%=      5-min Rain = 0
KME1 111021Z 20010KT 07/06 A2989 RMK A01 T00720059  RH  091%=      5-min Rain = 0
KME1 111022Z 20013KT 07/06 A2989 RMK A01 T00720059  RH  091%=      5-min Rain = 0
KME1 111023Z 20014KT 07/06 A299 RMK A01 T00720059  RH  091%=      5-min Rain = 0
KME1 111024Z 20011KT 07/06 A299 RMK A01 T00720058  RH  091%=      5-min Rain = 0
KME1 111025Z 20012KT 07/06 A299 RMK A01 T00720058  RH  091%=      5-min Rain = 0
KME1 111026Z 19010KT 07/06 A299 RMK A01 T00720059  RH  091%=      5-min Rain = 0
KME1 111027Z 19009KT 07/06 A299 RMK A01 T00720058  RH  091%=      5-min Rain = 0
KME1 111028Z 20008KT 07/06 A299 RMK A01 T00720059  RH  091%=      5-min Rain = 0
KME1 111029Z 20011KT 07/06 A299 RMK A01 T00720059  RH  092%=      5-min Rain = 0
KME1 111030Z 19009KT 07/06 A2989 RMK A01 T00720059  RH  092%=      5-min Rain = 0
KME1 111031Z 20008KT 07/06 A2989 RMK A01 T00720059  RH  092%=      5-min Rain = 0
KME1 111032Z 20007KT 07/06 A2989 RMK A01 T00720059  RH  092%=      5-min Rain = 0
KME1 111033Z 20009KT 07/06 A299 RMK A01 T00720059  RH  092%=      5-min Rain = 0
KME1 111034Z 21008KT 07/06 A299 RMK A01 T00720059  RH  092%=      5-min Rain = 0
KME1 111035Z 21006KT 07/06 A299 RMK A01 T00720060  RH  092%=      5-min Rain = 0
KME1 111036Z 21008KT 07/06 A299 RMK A01 T00720060  RH  092%=      5-min Rain = 0
KME1 111037Z 20009KT 07/06 A299 RMK A01 T00720060  RH  092%=      5-min Rain = 0
KME1 111038Z 21007KT 07/06 A299 RMK A01 T00720060  RH  092%=      5-min Rain = 0
KME1 111039Z 21007KT 07/06 A299 RMK A01 T00720059  RH  092%=      5-min Rain = 0
KME1 111040Z 20009KT 07/06 A299 RMK A01 T00720060  RH  092%=      5-min Rain = 0
KME1 111041Z 20008KT 07/06 A299 RMK A01 T00720060  RH  092%=      5-min Rain = 0
KME1 111042Z 21007KT 07/06 A299 RMK A01 T00720060  RH  092%=      5-min Rain = 0
KME1 111043Z 20007KT 07/06 A299 RMK A01 T00720059  RH  092%=      5-min Rain = 0
KME1 111044Z 21005KT 07/06 A299 RMK A01 T00720059  RH  092%=      5-min Rain = 0
KME1 111045Z 22006KT 07/06 A299 RMK A01 T00720060  RH  092%=      5-min Rain = 0
KME1 111046Z 20009KT 07/06 A299 RMK A01 T00720060  RH  092%=      5-min Rain = 0
KME1 111047Z 21009KT 07/06 A299 RMK A01 T00720060  RH  092%=      5-min Rain = 0
KME1 111048Z 20006KT 07/06 A299 RMK A01 T00720060  RH  092%=      5-min Rain = 0
KME1 111049Z 20005KT 07/06 A299 RMK A01 T00720060  RH  092%=      5-min Rain = 0
KME1 111050Z 19008KT 07/06 A299 RMK A01 T00720060  RH  092%=      5-min Rain = 0
KME1 111051Z 19007KT 07/06 A299 RMK A01 T00720060  RH  092%=      5-min Rain = 0
KME1 111052Z 18006KT 07/06 A299 RMK A01 T00720060  RH  092%=      5-min Rain = 0
KME1 111053Z 20006KT 07/06 A2989 RMK A01 T00720061  RH  092%=      5-min Rain = 0
KME1 111054Z 19005KT 07/06 A299 RMK A01 T00720060  RH  092%=      5-min Rain = 0
KME1 111055Z 20008KT 07/06 A299 RMK A01 T00720060  RH  092%=      5-min Rain = 0
KME1 111056Z 19007KT 07/06 A299 RMK A01 T00720061  RH  092%=      5-min Rain = 0
KME1 111057Z 19008KT 07/06 A299 RMK A01 T00720061  RH  093%=      5-min Rain = 0
KME1 111058Z 20009KT 07/06 A2991 RMK A01 T00720061  RH  093%=      5-min Rain = 0
KME1 111059Z 20007KT 07/06 A299 RMK A01 T00720061  RH  093%=      5-min Rain = 0
KME1 111100Z 20007KT 07/06 A299 RMK A01 T00720062  RH  093%=      5-min Rain = 0
KME1 111101Z 19007KT 07/06 A299 RMK A01 T00720062  RH  093%=      5-min Rain = 0
KME1 111102Z 20008KT 07/06 A299 RMK A01 T00720062  RH  093%=      5-min Rain = 0
KME1 111103Z 19008KT 07/06 A299 RMK A01 T00720062  RH  093%=      5-min Rain = 0
KME1 111104Z 19010KT 07/06 A299 RMK A01 T00720062  RH  093%=      5-min Rain = 0
KME1 111105Z 19011KT 07/06 A299 RMK A01 T00720062  RH  093%=      5-min Rain = 0
KME1 111106Z 19009KT 07/06 A299 RMK A01 T00720062  RH  093%=      5-min Rain = 0
KME1 111107Z 19009KT 07/06 A299 RMK A01 T00720062  RH  093%=      5-min Rain = 0
KME1 111108Z 19009KT 07/06 A299 RMK A01 T00720062  RH  093%=      5-min Rain = 0
KME1 111109Z 19010KT 07/06 A2991 RMK A01 T00720063  RH  094%=      5-min Rain = 0
KME1 111110Z 20008KT 07/06 A2991 RMK A01 T00720062  RH  094%=      5-min Rain = 0
KME1 111111Z 20007KT 07/06 A2991 RMK A01 T00720063  RH  094%=      5-min Rain = 0
KME1 111112Z 19008KT 07/06 A2991 RMK A01 T00720063  RH  094%=      5-min Rain = 0
KME1 111113Z 20009KT 07/06 A2991 RMK A01 T00720063  RH  094%=      5-min Rain = 0
KME1 111114Z 20009KT 07/06 A2991 RMK A01 T00720063  RH  094%=      5-min Rain = 0
KME1 111115Z 19010KT 07/06 A2991 RMK A01 T00720063  RH  094%=      5-min Rain = 0
KME1 111116Z 19008KT 07/06 A2991 RMK A01 T00720063  RH  094%=      5-min Rain = 0
KME1 111117Z 19009KT 07/06 A2991 RMK A01 T00720063  RH  094%=      5-min Rain = 0
KME1 111118Z 20012KT 07/06 A2991 RMK A01 T00720063  RH  094%=      5-min Rain = 0
KME1 111119Z 19010KT 07/06 A2991 RMK A01 T00720063  RH  094%=      5-min Rain = 0
KME1 111120Z 19008KT 07/06 A2991 RMK A01 T00720063  RH  094%=      5-min Rain = 0
KME1 111121Z 20008KT 07/06 A2991 RMK A01 T00720063  RH  094%=      5-min Rain = 0
KME1 111122Z 20011KT 07/06 A2991 RMK A01 T00720063  RH  094%=      5-min Rain = 0
KME1 111123Z 20010KT 07/06 A2992 RMK A01 T00720063  RH  094%=      5-min Rain = 0
KME1 111124Z 19010KT 07/06 A2992 RMK A01 T00720063  RH  094%=      5-min Rain = 0
KME1 111125Z 20009KT 07/06 A2992 RMK A01 T00720063  RH  094%=      5-min Rain = 0
KME1 111126Z 20010KT 07/06 A2991 RMK A01 T00720063  RH  094%=      5-min Rain = 0
KME1 111127Z 19011KT 07/06 A2991 RMK A01 T00720063  RH  094%=      5-min Rain = 0
KME1 111128Z 19007G12KT 07/06 A299 RMK A01 T00720063  RH  094%=      5-min Rain = 0
KME1 111129Z 19008KT 07/06 A299 RMK A01 T00730064  RH  094%=      5-min Rain = 0
KME1 111130Z 19006KT 07/06 A299 RMK A01 T00720063  RH  094%=      5-min Rain = 0
KME1 111131Z 18006KT 07/06 A2989 RMK A01 T00720063  RH  094%=      5-min Rain = 0
KME1 111132Z 18006KT 07/06 A2989 RMK A01 T00720063  RH  094%=      5-min Rain = 0
KME1 111133Z 18004KT 07/06 A2989 RMK A01 T00720063  RH  094%=      5-min Rain = 0
KME1 111134Z 19003KT 07/06 A299 RMK A01 T00720063  RH  094%=      5-min Rain = 0
KME1 111135Z 21006KT 07/06 A299 RMK A01 T00720064  RH  094%=      5-min Rain = 0
KME1 111136Z 20005KT 07/06 A299 RMK A01 T00720064  RH  094%=      5-min Rain = 0
KME1 111137Z 19005KT 07/06 A2989 RMK A01 T00720064  RH  094%=      5-min Rain = 0
KME1 111138Z 19006KT 07/06 A299 RMK A01 T00720064  RH  094%=      5-min Rain = 0
KME1 111139Z 20007KT 07/06 A299 RMK A01 T00730064  RH  095%=      5-min Rain = 0
KME1 111140Z 20006KT 07/07 A299 RMK A01 T00730065  RH  095%=      5-min Rain = 0
KME1 111141Z 20007KT 07/07 A299 RMK A01 T00730065  RH  095%=      5-min Rain = 0
KME1 111142Z 21006KT 07/07 A2991 RMK A01 T00730065  RH  095%=      5-min Rain = 0
KME1 111143Z 21005KT 07/07 A299 RMK A01 T00730065  RH  095%=      5-min Rain = 0
KME1 111144Z 21005KT 07/07 A299 RMK A01 T00730065  RH  095%=      5-min Rain = 0
KME1 111145Z 21005KT 07/07 A299 RMK A01 T00730065  RH  095%=      5-min Rain = 0
KME1 111146Z 20006KT 07/07 A2989 RMK A01 T00730065  RH  095%=      5-min Rain = 0
KME1 111147Z 19005KT 07/07 A2989 RMK A01 T00730065  RH  095%=      5-min Rain = 0
KME1 111148Z 19008KT 07/07 A2989 RMK A01 T00730065  RH  095%=      5-min Rain = 0
KME1 111149Z 18007KT 07/07 A2989 RMK A01 T00730065  RH  095%=      5-min Rain = 0
KME1 111150Z 18009KT 07/07 A2989 RMK A01 T00730066  RH  095%=      5-min Rain = 0
KME1 111151Z 20007KT 07/07 A2989 RMK A01 T00730066  RH  095%=      5-min Rain = 0
KME1 111152Z 20009KT 07/07 A2989 RMK A01 T00730066  RH  095%=      5-min Rain = 0
KME1 111153Z 21009KT 07/07 A2989 RMK A01 T00730066  RH  095%=      5-min Rain = 0
KME1 111154Z 20007KT 07/07 A2989 RMK A01 T00730066  RH  095%=      5-min Rain = 0
KME1 111155Z 21008KT 07/07 A2989 RMK A01 T00730066  RH  096%=      5-min Rain = 0
KME1 111156Z 20009KT 07/07 A2989 RMK A01 T00730066  RH  096%=      5-min Rain = 0
KME1 111157Z 20011KT 07/07 A299 RMK A01 T00730066  RH  096%=      5-min Rain = 0
KME1 111158Z 19012KT 07/07 A299 RMK A01 T00730066  RH  096%=      5-min Rain = 0
KME1 111159Z 19012KT 07/07 A299 RMK A01 T00730066  RH  096%=      5-min Rain = 0
KME1 111200Z 20010KT 07/07 A2991 RMK A01 T00730067  RH  096%=      5-min Rain = 0
KME1 111201Z 19010KT 07/07 A2991 RMK A01 T00730067  RH  096%=      5-min Rain = 0
KME1 111202Z 19010KT 07/07 A299 RMK A01 T00730066  RH  096%=      5-min Rain = 0
KME1 111203Z 19009KT 07/07 A299 RMK A01 T00730066  RH  096%=      5-min Rain = 0
KME1 111204Z 19009KT 07/07 A2989 RMK A01 T00730067  RH  096%=      5-min Rain = 0
KME1 111205Z 19010KT 07/07 A2989 RMK A01 T00730067  RH  096%=      5-min Rain = 0
KME1 111206Z 19009KT 07/07 A2989 RMK A01 T00730067  RH  096%=      5-min Rain = 0
KME1 111207Z 18010KT 07/07 A2989 RMK A01 T00730067  RH  096%=      5-min Rain = 0
KME1 111208Z 18010KT 07/07 A2989 RMK A01 T00730067  RH  096%=      5-min Rain = 0
KME1 111209Z 18010KT 07/07 A2989 RMK A01 T00730067  RH  096%=      5-min Rain = 0
KME1 111210Z 18009KT 07/07 A2989 RMK A01 T00730067  RH  096%=      5-min Rain = 0
KME1 111211Z 18013KT 07/07 A2989 RMK A01 T00730067  RH  096%=      5-min Rain = 0
KME1 111212Z 18012G17KT 07/07 A2989 RMK A01 T00730067  RH  096%=      5-min Rain = 0
KME1 111213Z 18010KT 07/07 A2989 RMK A01 T00730067  RH  096%=      5-min Rain = 0
KME1 111214Z 19012KT 07/07 A2989 RMK A01 T00730068  RH  096%=      5-min Rain = 0
KME1 111215Z 19010KT 07/07 A2989 RMK A01 T00730068  RH  096%=      5-min Rain = 0
KME1 111216Z 19010KT 07/07 A2989 RMK A01 T00730068  RH  097%=      5-min Rain = 0
KME1 111217Z 19012KT 07/07 A2989 RMK A01 T00730068  RH  097%=      5-min Rain = 0
KME1 111218Z 19012KT 07/07 A299 RMK A01 T00730068  RH  097%=      5-min Rain = 0
KME1 111219Z 18011KT 07/07 A299 RMK A01 T00730069  RH  097%=      5-min Rain = 0
KME1 111220Z 18012KT 07/07 A299 RMK A01 T00730069  RH  097%=      5-min Rain = 0
KME1 111221Z 19012KT 07/07 A2989 RMK A01 T00730069  RH  097%=      5-min Rain = 0
KME1 111222Z 19011KT 07/07 A2989 RMK A01 T00730069  RH  097%=      5-min Rain = 0
KME1 111223Z 19011KT 07/07 A2989 RMK A01 T00730069  RH  097%=      5-min Rain = 0
KME1 111224Z 19011KT 07/07 A2989 RMK A01 T00730069  RH  097%=      5-min Rain = 0
KME1 111225Z 20011KT 07/07 A2989 RMK A01 T00730069  RH  097%=      5-min Rain = 0
KME1 111226Z 19010KT 07/07 A2989 RMK A01 T00730069  RH  097%=      5-min Rain = 0
KME1 111227Z 19011KT 07/07 A2989 RMK A01 T00730069  RH  098%=      5-min Rain = 0
KME1 111228Z 19011KT 07/07 A2989 RMK A01 T00730069  RH  098%=      5-min Rain = 0
KME1 111229Z 19012KT 07/07 A2989 RMK A01 T00730069  RH  098%=      5-min Rain = 0
KME1 111230Z 19010KT 07/07 A2989 RMK A01 T00730069  RH  098%=      5-min Rain = 0
KME1 111231Z 19009KT 07/07 A2989 RMK A01 T00730069  RH  098%=      5-min Rain = 0
KME1 111232Z 19010KT 07/07 A2989 RMK A01 T00730069  RH  098%=      5-min Rain = 0
KME1 111233Z 19011KT 07/07 A2989 RMK A01 T00730070  RH  098%=      5-min Rain = 0
KME1 111234Z 19012KT 07/07 A2989 RMK A01 T00730070  RH  098%=      5-min Rain = 0
KME1 111235Z 20010KT 07/07 A2989 RMK A01 T00730070  RH  098%=      5-min Rain = 0
KME1 111236Z 20010KT 07/07 A2989 RMK A01 T00730069  RH  098%=      5-min Rain = 0
KME1 111237Z 19008KT 07/07 A2989 RMK A01 T00730069  RH  097%=      5-min Rain = 0
KME1 111238Z 20012KT 07/07 A2989 RMK A01 T00730070  RH  098%=      5-min Rain = 0
KME1 111239Z 20010G15KT 07/07 A2989 RMK A01 T00730070  RH  098%=      5-min Rain = 0
KME1 111240Z 20009KT 07/07 A2989 RMK A01 T00730070  RH  098%=      5-min Rain = 0
KME1 111241Z 21009KT 07/07 A2989 RMK A01 T00730070  RH  098%=      5-min Rain = 0
KME1 111242Z 20008KT 07/07 A2989 RMK A01 T00730070  RH  098%=      5-min Rain = 0
KME1 111243Z 20007KT 07/07 A2989 RMK A01 T00730070  RH  098%=      5-min Rain = 0
KME1 111244Z 20008KT 07/07 A2989 RMK A01 T00730070  RH  098%=      5-min Rain = 0
KME1 111245Z 20009KT 07/07 A2989 RMK A01 T00730070  RH  098%=      5-min Rain = 0
KME1 111246Z 20007KT 07/07 A2989 RMK A01 T00730070  RH  098%=      5-min Rain = 0
KME1 111247Z 20009G14KT 07/07 A2989 RMK A01 T00730070  RH  098%=      5-min Rain = 0
KME1 111248Z 20010KT 07/07 A2989 RMK A01 T00730070  RH  098%=      5-min Rain = 0
KME1 111249Z 20007KT 07/07 A2988 RMK A01 T00730070  RH  098%=      5-min Rain = 0
KME1 111250Z 20007KT 07/07 A2989 RMK A01 T00740070  RH  098%=      5-min Rain = 0
KME1 111251Z 21008KT 07/07 A2988 RMK A01 T00740070  RH  098%=      5-min Rain = 0
KME1 111252Z 20007KT 07/07 A2988 RMK A01 T00740070  RH  098%=      5-min Rain = 0
KME1 111253Z 21006KT 07/07 A2988 RMK A01 T00740070  RH  098%=      5-min Rain = 0
KME1 111254Z 19006KT 07/07 A2988 RMK A01 T00740070  RH  098%=      5-min Rain = 0
KME1 111255Z 20009KT 07/07 A2988 RMK A01 T00730070  RH  098%=      5-min Rain = 0
KME1 111256Z 20007KT 07/07 A2988 RMK A01 T00730070  RH  098%=      5-min Rain = 0
KME1 111257Z 20009KT 07/07 A2988 RMK A01 T00740070  RH  097%=      5-min Rain = 0
KME1 111258Z 20008KT 07/07 A2988 RMK A01 T00740070  RH  098%=      5-min Rain = 0
KME1 111259Z 19008KT 07/07 A2989 RMK A01 T00740070  RH  098%=      5-min Rain = 0
KME1 111300Z 19007KT 07/07 A2989 RMK A01 T00740070  RH  098%=      5-min Rain = 0
KME1 111301Z 21006KT 07/07 A2989 RMK A01 T00740071  RH  098%=      5-min Rain = 0
KME1 111302Z 19007KT 07/07 A2989 RMK A01 T00730070  RH  098%=      5-min Rain = 0
KME1 111303Z 19006KT 07/07 A2988 RMK A01 T00740071  RH  098%=      5-min Rain = 0
KME1 111304Z 20006KT 07/07 A2988 RMK A01 T00740071  RH  098%=      5-min Rain = 0
KME1 111305Z 20008KT 07/07 A2988 RMK A01 T00740071  RH  098%=      5-min Rain = 0
KME1 111306Z 19008KT 07/07 A2988 RMK A01 T00740071  RH  098%=      5-min Rain = 0
KME1 111307Z 20009KT 07/07 A2988 RMK A01 T00740071  RH  098%=      5-min Rain = 0
KME1 111308Z 20007KT 07/07 A2988 RMK A01 T00740071  RH  098%=      5-min Rain = 0
KME1 111309Z 20009KT 07/07 A2989 RMK A01 T00740070  RH  098%=      5-min Rain = 0
KME1 111310Z 20010KT 07/07 A2989 RMK A01 T00740071  RH  098%=      5-min Rain = 0
KME1 111311Z 21008KT 07/07 A2989 RMK A01 T00740070  RH  098%=      5-min Rain = 0
KME1 111312Z 21007KT 07/07 A2989 RMK A01 T00740070  RH  097%=      5-min Rain = 0
KME1 111313Z 21006KT 07/07 A2989 RMK A01 T00740070  RH  097%=      5-min Rain = 0
KME1 111314Z 21007KT 07/07 A2989 RMK A01 T00740071  RH  098%=      5-min Rain = 0
KME1 111315Z 21007KT 07/07 A2989 RMK A01 T00740071  RH  098%=      5-min Rain = 0
KME1 111316Z 21009KT 07/07 A2989 RMK A01 T00740071  RH  098%=      5-min Rain = 0
KME1 111317Z 20008KT 07/07 A2989 RMK A01 T00740071  RH  098%=      5-min Rain = 0
KME1 111318Z 19008KT 07/07 A2989 RMK A01 T00740071  RH  098%=      5-min Rain = 0
KME1 111319Z 19009KT 07/07 A2989 RMK A01 T00740071  RH  098%=      5-min Rain = 0
KME1 111320Z 19009KT 07/07 A2989 RMK A01 T00740071  RH  098%=      5-min Rain = 0
KME1 111321Z 19008KT 07/07 A2989 RMK A01 T00740071  RH  098%=      5-min Rain = 0
KME1 111322Z 19007KT 07/07 A299 RMK A01 T00740071  RH  098%=      5-min Rain = 0
KME1 111323Z 19009KT 07/07 A299 RMK A01 T00740071  RH  098%=      5-min Rain = 0
KME1 111324Z 19008KT 07/07 A299 RMK A01 T00740071  RH  098%=      5-min Rain = 0
KME1 111325Z 20010KT 07/07 A299 RMK A01 T00740072  RH  098%=      5-min Rain = 0
KME1 111326Z 20009KT 07/07 A299 RMK A01 T00740072  RH  098%=      5-min Rain = 0
KME1 111327Z 20008KT 07/07 A299 RMK A01 T00740072  RH  098%=      5-min Rain = 0
KME1 111328Z 20008KT 07/07 A299 RMK A01 T00740072  RH  099%=      5-min Rain = 0
KME1 111329Z 19009KT 07/07 A299 RMK A01 T00740072  RH  099%=      5-min Rain = 0
KME1 111330Z 19007KT 07/07 A299 RMK A01 T00740072  RH  099%=      5-min Rain = 0
KME1 111331Z 20008KT 07/07 A299 RMK A01 T00740072  RH  099%=      5-min Rain = 0
KME1 111332Z 20009KT 07/07 A299 RMK A01 T00740072  RH  099%=      5-min Rain = 0
KME1 111333Z 21008KT 07/07 A299 RMK A01 T00740072  RH  099%=      5-min Rain = 0
KME1 111334Z 21010KT 07/07 A299 RMK A01 T00740072  RH  099%=      5-min Rain = 0
KME1 111335Z 19009G14KT 07/07 A299 RMK A01 T00740072  RH  099%=      5-min Rain = 0
KME1 111336Z 19011KT 07/07 A299 RMK A01 T00740072  RH  099%=      5-min Rain = 0
KME1 111337Z 19008KT 07/07 A299 RMK A01 T00740072  RH  099%=      5-min Rain = 0
KME1 111338Z 20012G19KT 07/07 A299 RMK A01 T00740072  RH  099%=      5-min Rain = 0
KME1 111339Z 20013KT 07/07 A299 RMK A01 T00740072  RH  099%=      5-min Rain = 0
KME1 111340Z 19013KT 07/07 A299 RMK A01 T00740072  RH  099%=      5-min Rain = 0
KME1 111341Z 20012G17KT 08/07 A2989 RMK A01 T00750072  RH  099%=      5-min Rain = 0
KME1 111342Z 19011KT 07/07 A2989 RMK A01 T00740072  RH  099%=      5-min Rain = 0
KME1 111343Z 19011KT 08/07 A2989 RMK A01 T00750072  RH  099%=      5-min Rain = 0
KME1 111344Z 19011KT 07/07 A2989 RMK A01 T00740073  RH  099%=      5-min Rain = 0
KME1 111345Z 19011KT 08/07 A2989 RMK A01 T00750073  RH  099%=      5-min Rain = 0
KME1 111346Z 19014KT 07/07 A2989 RMK A01 T00740073  RH  099%=      5-min Rain = 0
KME1 111347Z 19012KT 08/07 A2989 RMK A01 T00750074  RH  099%=      5-min Rain = 0
KME1 111348Z 19012G17KT 08/07 A2989 RMK A01 T00750073  RH  099%=      5-min Rain = 0
KME1 111349Z 19014KT 07/07 A299 RMK A01 T00740073  RH  099%=      5-min Rain = 0
KME1 111350Z 20015KT 07/07 A299 RMK A01 T00740073  RH  099%=      5-min Rain = 0
KME1 111351Z 19014KT 07/07 A2989 RMK A01 T00740073  RH  099%=      5-min Rain = 0
KME1 111352Z 20013KT 08/07 A2989 RMK A01 T00750073  RH  099%=      5-min Rain = 0
KME1 111353Z 19011KT 08/07 A2989 RMK A01 T00750073  RH  099%=      5-min Rain = 0
KME1 111354Z 19015KT 07/07 A2989 RMK A01 T00740073  RH  099%=      5-min Rain = 0
KME1 111355Z 19015KT 07/07 A299 RMK A01 T00740073  RH  099%=      5-min Rain = 0
KME1 111356Z 19012KT 07/07 A299 RMK A01 T00740073  RH  099%=      5-min Rain = 0
KME1 111357Z 20013KT 07/07 A299 RMK A01 T00740073  RH  099%=      5-min Rain = 0
KME1 111358Z 19013KT 07/07 A299 RMK A01 T00740074  RH  099%=      5-min Rain = 0
KME1 111359Z 20013KT 07/07 A299 RMK A01 T00740074  RH  100%=      5-min Rain = 0
KME1 111400Z 19015KT 08/07 A299 RMK A01 T00750074  RH  100%=      5-min Rain = 0
KME1 111401Z 20015KT 08/07 A299 RMK A01 T00750074  RH  100%=      5-min Rain = 0
KME1 111402Z 19017G22KT 08/08 A299 RMK A01 T00750075  RH  100%=      5-min Rain = 0
KME1 111403Z 20015KT 08/07 A2991 RMK A01 T00750074  RH  099%=      5-min Rain = 0
KME1 111404Z 19014KT 08/07 A299 RMK A01 T00750074  RH  099%=      5-min Rain = 0
KME1 111405Z 20016KT 08/07 A299 RMK A01 T00750074  RH  099%=      5-min Rain = 0
KME1 111406Z 19015KT 08/07 A299 RMK A01 T00750074  RH  099%=      5-min Rain = 0
KME1 111407Z 20015KT 08/07 A299 RMK A01 T00750074  RH  099%=      5-min Rain = 0
KME1 111408Z 19012KT 08/07 A299 RMK A01 T00750073  RH  099%=      5-min Rain = 0
KME1 111409Z 20012KT 08/07 A299 RMK A01 T00760073  RH  099%=      5-min Rain = 0
KME1 111410Z 19012KT 08/07 A299 RMK A01 T00760073  RH  099%=      5-min Rain = 0
KME1 111411Z 20011KT 08/07 A299 RMK A01 T00750073  RH  099%=      5-min Rain = 0
KME1 111412Z 19010KT 08/07 A2989 RMK A01 T00750073  RH  099%=      5-min Rain = 0
KME1 111413Z 20008KT 08/07 A2989 RMK A01 T00750074  RH  099%=      5-min Rain = 0
KME1 111414Z 19007KT 08/07 A2989 RMK A01 T00750074  RH  099%=      5-min Rain = 0
KME1 111415Z 20007KT 08/07 A2989 RMK A01 T00750074  RH  099%=      5-min Rain = 0
KME1 111416Z 20007KT 08/07 A2988 RMK A01 T00750074  RH  099%=      5-min Rain = 0
KME1 111417Z 21006KT 08/07 A2988 RMK A01 T00760074  RH  099%=      5-min Rain = 0
KME1 111418Z 20008KT 08/07 A2988 RMK A01 T00760074  RH  099%=      5-min Rain = 0
KME1 111419Z 20008KT 08/07 A2988 RMK A01 T00750074  RH  099%=      5-min Rain = 0
KME1 111420Z 19009KT 08/07 A2988 RMK A01 T00750074  RH  099%=      5-min Rain = 0
KME1 111421Z 19009KT 08/08 A2989 RMK A01 T00760075  RH  099%=      5-min Rain = 0
KME1 111422Z 19008KT 08/08 A2989 RMK A01 T00760075  RH  099%=      5-min Rain = 0
KME1 111423Z 19009KT 08/08 A2989 RMK A01 T00760075  RH  100%=      5-min Rain = 0
KME1 111424Z 19007KT 08/08 A2989 RMK A01 T00760075  RH  100%=      5-min Rain = 0
KME1 111425Z 19007KT 08/08 A2989 RMK A01 T00760075  RH  100%=      5-min Rain = 0
KME1 111426Z 19009KT 08/08 A2989 RMK A01 T00760075  RH  099%=      5-min Rain = 0
KME1 111427Z 19009KT 08/08 A2989 RMK A01 T00770076  RH  099%=      5-min Rain = 0
KME1 111428Z 18009KT 08/08 A2989 RMK A01 T00760075  RH  099%=      5-min Rain = 0
KME1 111429Z 19009KT 08/08 A2989 RMK A01 T00760075  RH  099%=      5-min Rain = 0
KME1 111430Z 19008KT 08/07 A2989 RMK A01 T00760074  RH  099%=      5-min Rain = 0
KME1 111431Z 19008KT 08/07 A2989 RMK A01 T00760074  RH  099%=      5-min Rain = 0
KME1 111432Z 19006KT 08/08 A2989 RMK A01 T00770075  RH  099%=      5-min Rain = 0
KME1 111433Z 19006KT 08/08 A2989 RMK A01 T00770075  RH  099%=      5-min Rain = 0
KME1 111434Z 20007KT 08/08 A2989 RMK A01 T00770075  RH  099%=      5-min Rain = 0
KME1 111435Z 20005KT 08/08 A2989 RMK A01 T00770075  RH  099%=      5-min Rain = 0
KME1 111436Z 20006KT 08/08 A2989 RMK A01 T00770075  RH  099%=      5-min Rain = 0
KME1 111437Z 19007KT 08/08 A2989 RMK A01 T00770075  RH  099%=      5-min Rain = 0
KME1 111438Z 19007KT 08/08 A2989 RMK A01 T00770076  RH  099%=      5-min Rain = 0
KME1 111439Z 19008KT 08/08 A2989 RMK A01 T00780076  RH  099%=      5-min Rain = 0
KME1 111440Z 18012G17KT 08/08 A299 RMK A01 T00780076  RH  099%=      5-min Rain = 0
KME1 111441Z 18015KT 08/08 A299 RMK A01 T00780076  RH  099%=      5-min Rain = 0
KME1 111442Z 19015KT 08/08 A299 RMK A01 T00780076  RH  098%=      5-min Rain = 0
KME1 111443Z 19018G23KT 08/08 A2991 RMK A01 T00780075  RH  098%=      5-min Rain = 0
KME1 111444Z 20015KT 08/07 A299 RMK A01 T00780074  RH  097%=      5-min Rain = 0
KME1 111445Z 19014KT 08/07 A2991 RMK A01 T00780074  RH  097%=      5-min Rain = 0
KME1 111446Z 19012G17KT 08/07 A2991 RMK A01 T00780074  RH  097%=      5-min Rain = 0
KME1 111447Z 20015KT 08/07 A299 RMK A01 T00780074  RH  097%=      5-min Rain = 0
KME1 111448Z 19013KT 08/07 A299 RMK A01 T00780074  RH  097%=      5-min Rain = 0
KME1 111449Z 19012KT 08/07 A299 RMK A01 T00780074  RH  097%=      5-min Rain = 0
KME1 111450Z 19011KT 08/07 A299 RMK A01 T00780074  RH  097%=      5-min Rain = 0
KME1 111451Z 20014KT 08/07 A299 RMK A01 T00780074  RH  097%=      5-min Rain = 0
KME1 111452Z 20013KT 08/08 A299 RMK A01 T00780075  RH  098%=      5-min Rain = 0
KME1 111453Z 20011KT 08/07 A2989 RMK A01 T00780074  RH  097%=      5-min Rain = 0
KME1 111454Z 21008KT 08/07 A2989 RMK A01 T00780074  RH  097%=      5-min Rain = 0
KME1 111455Z 20012KT 08/08 A2989 RMK A01 T00780075  RH  098%=      5-min Rain = 0
KME1 111456Z 19012KT 08/08 A299 RMK A01 T00780075  RH  098%=      5-min Rain = 0
KME1 111457Z 19011KT 08/08 A299 RMK A01 T00780076  RH  098%=      5-min Rain = 0
KME1 111458Z 20009KT 08/08 A2989 RMK A01 T00780076  RH  099%=      5-min Rain = 0
KME1 111459Z 20010KT 08/08 A299 RMK A01 T00780076  RH  099%=      5-min Rain = 0
KME1 111500Z 19011KT 08/08 A299 RMK A01 T00780077  RH  099%=      5-min Rain = 0
KME1 111501Z 20012KT 08/08 A2991 RMK A01 T00780077  RH  099%=      5-min Rain = 0
KME1 111502Z 19011KT 08/08 A2991 RMK A01 T00790078  RH  099%=      5-min Rain = 0
KME1 111503Z 19012KT 08/08 A2991 RMK A01 T00790078  RH  100%=      5-min Rain = 0
KME1 111504Z 20012G17KT 08/08 A299 RMK A01 T00790079  RH  100%=      5-min Rain = 0
KME1 111505Z 19010KT 08/08 A299 RMK A01 T00790079  RH  100%=      5-min Rain = 0
KME1 111506Z 20013KT 08/08 A299 RMK A01 T00790078  RH  099%=      5-min Rain = 0
KME1 111507Z 19010KT 08/08 A299 RMK A01 T00800078  RH  099%=      5-min Rain = 0
KME1 111508Z 20013G18KT 08/08 A299 RMK A01 T00790078  RH  099%=      5-min Rain = 0
KME1 111509Z 19016KT 08/08 A299 RMK A01 T00800078  RH  099%=      5-min Rain = 0
KME1 111510Z 20012KT 08/08 A299 RMK A01 T00800077  RH  098%=      5-min Rain = 0
KME1 111511Z 20012KT 08/08 A299 RMK A01 T00790076  RH  098%=      5-min Rain = 0
KME1 111512Z 20009KT 08/08 A299 RMK A01 T00800076  RH  098%=      5-min Rain = 0
KME1 111513Z 20011KT 08/08 A299 RMK A01 T00790076  RH  098%=      5-min Rain = 0
KME1 111514Z 19012G17KT 08/08 A299 RMK A01 T00800077  RH  098%=      5-min Rain = 0
KME1 111515Z 20013KT 08/08 A299 RMK A01 T00800077  RH  098%=      5-min Rain = 0
KME1 111516Z 20010G15KT 08/08 A299 RMK A01 T00790076  RH  098%=      5-min Rain = 0
KME1 111517Z 20011KT 08/08 A299 RMK A01 T00800076  RH  098%=      5-min Rain = 0
KME1 111518Z 20010KT 08/08 A299 RMK A01 T00800076  RH  097%=      5-min Rain = 0
KME1 111519Z 20009KT 08/08 A299 RMK A01 T00790076  RH  098%=      5-min Rain = 0
KME1 111520Z 19009KT 08/08 A299 RMK A01 T00790076  RH  098%=      5-min Rain = 0
KME1 111521Z 20010KT 08/08 A299 RMK A01 T00790076  RH  098%=      5-min Rain = 0
KME1 111522Z 20008KT 08/08 A299 RMK A01 T00800077  RH  098%=      5-min Rain = 0
KME1 111523Z 20008KT 08/08 A2991 RMK A01 T00800077  RH  098%=      5-min Rain = 0
KME1 111524Z 20006KT 08/08 A2991 RMK A01 T00800078  RH  098%=      5-min Rain = 0
KME1 111525Z 20007KT 08/08 A2991 RMK A01 T00800078  RH  098%=      5-min Rain = 0
KME1 111526Z 20007KT 08/08 A2991 RMK A01 T00800078  RH  098%=      5-min Rain = 0
KME1 111527Z 20008KT 08/08 A2991 RMK A01 T00800078  RH  098%=      5-min Rain = 0
KME1 111528Z 20006KT 08/08 A2991 RMK A01 T00800078  RH  098%=      5-min Rain = 0
KME1 111529Z 20007KT 08/08 A2991 RMK A01 T00800078  RH  099%=      5-min Rain = 0
KME1 111530Z 20008KT 08/08 A2991 RMK A01 T00810078  RH  099%=      5-min Rain = 0
KME1 111531Z 20010KT 08/08 A2991 RMK A01 T00810079  RH  099%=      5-min Rain = 0
KME1 111532Z 20009KT 08/08 A2991 RMK A01 T00810078  RH  098%=      5-min Rain = 0
KME1 111533Z 20009KT 08/08 A2991 RMK A01 T00810078  RH  098%=      5-min Rain = 0
KME1 111534Z 20007KT 08/08 A2991 RMK A01 T00800077  RH  098%=      5-min Rain = 0
KME1 111535Z 20007KT 08/08 A2991 RMK A01 T00810077  RH  098%=      5-min Rain = 0
KME1 111536Z 21007KT 08/08 A2991 RMK A01 T00810077  RH  098%=      5-min Rain = 0
KME1 111537Z 20008KT 08/08 A2991 RMK A01 T00810077  RH  098%=      5-min Rain = 0
KME1 111538Z 21009KT 08/08 A2991 RMK A01 T00810077  RH  098%=      5-min Rain = 0
KME1 111539Z 20009KT 08/08 A2991 RMK A01 T00810077  RH  097%=      5-min Rain = 0
KME1 111540Z 20008KT 08/08 A2991 RMK A01 T00810077  RH  097%=      5-min Rain = 0
KME1 111541Z 20007KT 08/08 A2991 RMK A01 T00810077  RH  098%=      5-min Rain = 0
KME1 111542Z 20008KT 08/08 A2991 RMK A01 T00810078  RH  098%=      5-min Rain = 0
KME1 111543Z 21008KT 08/08 A2991 RMK A01 T00810078  RH  098%=      5-min Rain = 0
KME1 111544Z 20009KT 08/08 A2991 RMK A01 T00820078  RH  098%=      5-min Rain = 0
KME1 111545Z 20009KT 08/08 A2991 RMK A01 T00810078  RH  098%=      5-min Rain = 0
KME1 111546Z 20010KT 08/08 A2991 RMK A01 T00820078  RH  098%=      5-min Rain = 0
KME1 111547Z 20007KT 08/08 A2991 RMK A01 T00810078  RH  097%=      5-min Rain = 0
KME1 111548Z 20005KT 08/08 A2991 RMK A01 T00820079  RH  098%=      5-min Rain = 0
KME1 111549Z 20005KT 08/08 A2991 RMK A01 T00820080  RH  098%=      5-min Rain = 0
KME1 111550Z 20007KT 08/08 A2992 RMK A01 T00820080  RH  098%=      5-min Rain = 0
KME1 111551Z 20009KT 08/08 A2992 RMK A01 T00820079  RH  098%=      5-min Rain = 0
KME1 111552Z 20009KT 08/08 A2992 RMK A01 T00830079  RH  098%=      5-min Rain = 0
KME1 111553Z 20012KT 08/08 A2992 RMK A01 T00820079  RH  098%=      5-min Rain = 0
KME1 111554Z 20008KT 08/08 A2992 RMK A01 T00830079  RH  098%=      5-min Rain = 0
KME1 111555Z 20010KT 08/08 A2992 RMK A01 T00830080  RH  098%=      5-min Rain = 0
KME1 111556Z 20011KT 08/08 A2992 RMK A01 T00830080  RH  098%=      5-min Rain = 0
KME1 111557Z 20007KT 08/08 A2992 RMK A01 T00830080  RH  098%=      5-min Rain = 0
KME1 111558Z 22006KT 08/08 A2992 RMK A01 T00830081  RH  098%=      5-min Rain = 0
KME1 111559Z 21009KT 08/08 A2992 RMK A01 T00840081  RH  098%=      5-min Rain = 0
KME1 111600Z 22008KT 08/08 A2992 RMK A01 T00840081  RH  098%=      5-min Rain = 0
KME1 111601Z 21008KT 08/08 A2992 RMK A01 T00840080  RH  098%=      5-min Rain = 0
KME1 111602Z 22007KT 08/08 A2992 RMK A01 T00840080  RH  097%=      5-min Rain = 0
KME1 111603Z 22005KT 09/08 A2992 RMK A01 T00850081  RH  097%=      5-min Rain = 0
KME1 111604Z 22005KT 09/08 A2992 RMK A01 T00850081  RH  098%=      5-min Rain = 0
KME1 111605Z 24005KT 09/08 A2992 RMK A01 T00850081  RH  097%=      5-min Rain = 0
KME1 111606Z 27005KT 09/08 A2992 RMK A01 T00850081  RH  097%=      5-min Rain = 0
KME1 111607Z 27004KT 09/08 A2992 RMK A01 T00850081  RH  097%=      5-min Rain = 0
KME1 111608Z 25003KT 09/08 A2992 RMK A01 T00860081  RH  097%=      5-min Rain = 0
KME1 111609Z 23002KT 09/08 A2992 RMK A01 T00860082  RH  097%=      5-min Rain = 0
KME1 111610Z 26002KT 09/08 A2991 RMK A01 T00860082  RH  097%=      5-min Rain = 0
KME1 111611Z 23003KT 09/08 A2991 RMK A01 T00860081  RH  097%=      5-min Rain = 0
KME1 111612Z 21003KT 09/08 A2991 RMK A01 T00860081  RH  097%=      5-min Rain = 0
KME1 111613Z 24002KT 09/08 A2991 RMK A01 T00870082  RH  097%=      5-min Rain = 0
KME1 111614Z 23004KT 09/08 A2991 RMK A01 T00870081  RH  096%=      5-min Rain = 0
KME1 111615Z 20005KT 09/08 A2991 RMK A01 T00870081  RH  096%=      5-min Rain = 0
KME1 111616Z 21003KT 09/08 A2991 RMK A01 T00870081  RH  096%=      5-min Rain = 0
KME1 111617Z 21005KT 09/08 A2991 RMK A01 T00880082  RH  096%=      5-min Rain = 0
KME1 111618Z 20005KT 09/08 A2991 RMK A01 T00880081  RH  095%=      5-min Rain = 0
KME1 111619Z 21004KT 09/08 A2991 RMK A01 T00880081  RH  095%=      5-min Rain = 0
KME1 111620Z 21004KT 09/08 A2991 RMK A01 T00880081  RH  095%=      5-min Rain = 0
KME1 111621Z 20004KT 09/08 A2991 RMK A01 T00880082  RH  096%=      5-min Rain = 0
KME1 111622Z 19005KT 09/08 A299 RMK A01 T00890083  RH  096%=      5-min Rain = 0
KME1 111623Z 20004KT 09/08 A299 RMK A01 T00890082  RH  095%=      5-min Rain = 0
KME1 111624Z 21003KT 09/08 A299 RMK A01 T00890083  RH  096%=      5-min Rain = 0
KME1 111625Z 20004KT 09/08 A299 RMK A01 T00890082  RH  096%=      5-min Rain = 0
KME1 111626Z 22004KT 09/08 A299 RMK A01 T00890081  RH  095%=      5-min Rain = 0
KME1 111627Z 22003KT 09/08 A299 RMK A01 T00890080  RH  094%=      5-min Rain = 0
KME1 111628Z 23004KT 09/08 A299 RMK A01 T00890080  RH  094%=      5-min Rain = 0
KME1 111629Z 22004KT 09/08 A299 RMK A01 T00890081  RH  095%=      5-min Rain = 0
KME1 111630Z 23004KT 09/08 A299 RMK A01 T00900081  RH  094%=      5-min Rain = 0
KME1 111631Z 25002KT 09/08 A299 RMK A01 T00900081  RH  094%=      5-min Rain = 0
KME1 111632Z 23002KT 09/08 A299 RMK A01 T00900082  RH  094%=      5-min Rain = 0
KME1 111633Z 24003KT 09/08 A299 RMK A01 T00910083  RH  095%=      5-min Rain = 0
KME1 111634Z 26003KT 09/08 A299 RMK A01 T00910084  RH  095%=      5-min Rain = 0
KME1 111635Z 24004KT 09/08 A299 RMK A01 T00920083  RH  094%=      5-min Rain = 0
KME1 111636Z 24005KT 09/08 A299 RMK A01 T00920082  RH  094%=      5-min Rain = 0
KME1 111637Z 24005KT 09/08 A299 RMK A01 T00920083  RH  094%=      5-min Rain = 0
KME1 111638Z 24004KT 09/08 A2989 RMK A01 T00930082  RH  093%=      5-min Rain = 0
KME1 111639Z 24004KT 09/08 A2989 RMK A01 T00930082  RH  093%=      5-min Rain = 0
KME1 111640Z 24004KT 09/08 A2989 RMK A01 T00930083  RH  093%=      5-min Rain = 0
KME1 111641Z 27002KT 09/08 A2989 RMK A01 T00940083  RH  093%=      5-min Rain = 0
KME1 111642Z 27002KT 10/08 A2989 RMK A01 T00950084  RH  093%=      5-min Rain = 0
KME1 111643Z 30002KT 10/08 A2989 RMK A01 T00950084  RH  093%=      5-min Rain = 0
KME1 111644Z 30002KT 10/08 A2988 RMK A01 T00950084  RH  093%=      5-min Rain = 0
KME1 111645Z 31004KT 10/09 A2988 RMK A01 T00950085  RH  093%=      5-min Rain = 0
KME1 111646Z 31004KT 10/08 A2988 RMK A01 T00950084  RH  093%=      5-min Rain = 0
KME1 111647Z 29004KT 10/09 A2988 RMK A01 T00960085  RH  093%=      5-min Rain = 0
KME1 111648Z 28004KT 10/09 A2988 RMK A01 T00970086  RH  093%=      5-min Rain = 0
KME1 111649Z 29003KT 10/09 A2988 RMK A01 T00970085  RH  092%=      5-min Rain = 0
KME1 111650Z 28004KT 10/09 A2988 RMK A01 T00970085  RH  092%=      5-min Rain = 0
KME1 111651Z 29003KT 10/09 A2988 RMK A01 T00980086  RH  092%=      5-min Rain = 0
KME1 111652Z 29003KT 10/09 A2988 RMK A01 T00970086  RH  092%=      5-min Rain = 0
KME1 111653Z 30002KT 10/09 A2988 RMK A01 T00970085  RH  092%=      5-min Rain = 0
KME1 111654Z 32001KT 10/09 A2988 RMK A01 T00970086  RH  093%=      5-min Rain = 0
KME1 111655Z 30002KT 10/09 A2988 RMK A01 T00980088  RH  093%=      5-min Rain = 0.01
KME1 111656Z 32002KT 10/09 A2988 RMK A01 T00980087  RH  093%=      5-min Rain = 0
KME1 111657Z 34001KT 10/09 A2988 RMK A01 T00980087  RH  093%=      5-min Rain = 0
KME1 111658Z 31000KT 10/09 A2988 RMK A01 T00980088  RH  093%=      5-min Rain = 0
KME1 111659Z 28001KT 10/09 A2988 RMK A01 T00980088  RH  093%=      5-min Rain = 0
KME1 111700Z 27000KT 10/09 A2988 RMK A01 T00990088  RH  093%=      5-min Rain = 0
KME1 111701Z 26001KT 10/09 A2988 RMK A01 T00990089  RH  093%=      5-min Rain = 0
KME1 111702Z 25002KT 10/09 A2988 RMK A01 T00990089  RH  093%=      5-min Rain = 0
KME1 111703Z 25002KT 10/09 A2988 RMK A01 T00990088  RH  093%=      5-min Rain = 0
KME1 111704Z 24001KT 10/09 A2988 RMK A01 T00990088  RH  093%=      5-min Rain = 0
KME1 111705Z 23002KT 10/09 A2988 RMK A01 T01000089  RH  093%=      5-min Rain = 0
KME1 111706Z 20002KT 10/09 A2988 RMK A01 T01000089  RH  093%=      5-min Rain = 0
KME1 111707Z 19001KT 10/09 A2988 RMK A01 T01000089  RH  093%=      5-min Rain = 0
KME1 111708Z 19002KT 10/09 A2988 RMK A01 T01000090  RH  093%=      5-min Rain = 0
KME1 111709Z 18002KT 10/09 A2988 RMK A01 T01010090  RH  093%=      5-min Rain = 0
KME1 111710Z 18003KT 10/09 A2988 RMK A01 T01010091  RH  094%=      5-min Rain = 0
KME1 111711Z 18005KT 10/09 A2989 RMK A01 T01010092  RH  094%=      5-min Rain = 0
KME1 111712Z 17007KT 10/09 A2989 RMK A01 T01010091  RH  093%=      5-min Rain = 0
KME1 111713Z 16010KT 10/09 A2989 RMK A01 T01010091  RH  093%=      5-min Rain = 0
KME1 111714Z 16010KT 10/09 A2989 RMK A01 T01010091  RH  093%=      5-min Rain = 0
KME1 111715Z 17011KT 10/09 A299 RMK A01 T01010091  RH  094%=      5-min Rain = 0
KME1 111716Z 17012KT 10/09 A2989 RMK A01 T01000092  RH  094%=      5-min Rain = 0
KME1 111717Z 18011KT 10/09 A2989 RMK A01 T01000091  RH  094%=      5-min Rain = 0
KME1 111718Z 19011KT 10/09 A2989 RMK A01 T01000091  RH  094%=      5-min Rain = 0
KME1 111719Z 19008KT 10/09 A2989 RMK A01 T00990090  RH  094%=      5-min Rain = 0
KME1 111720Z 20010KT 10/09 A2989 RMK A01 T00990091  RH  095%=      5-min Rain = 0
KME1 111721Z 19008KT 10/09 A2989 RMK A01 T00990091  RH  095%=      5-min Rain = 0
KME1 111722Z 19009KT 10/09 A2989 RMK A01 T00990091  RH  095%=      5-min Rain = 0
KME1 111723Z 19011KT 10/09 A2989 RMK A01 T00990092  RH  095%=      5-min Rain = 0
KME1 111724Z 19009KT 10/09 A2989 RMK A01 T00980092  RH  095%=      5-min Rain = 0
KME1 111725Z 19011KT 10/09 A2989 RMK A01 T00980092  RH  096%=      5-min Rain = 0
KME1 111726Z 19009KT 10/09 A2989 RMK A01 T00980091  RH  096%=      5-min Rain = 0
KME1 111727Z 19009KT 10/09 A2989 RMK A01 T00980092  RH  096%=      5-min Rain = 0
KME1 111728Z 19011KT 10/09 A2989 RMK A01 T00970092  RH  096%=      5-min Rain = 0
KME1 111729Z 19011KT 10/09 A2989 RMK A01 T00970091  RH  096%=      5-min Rain = 0
KME1 111730Z 20008KT 10/09 A2989 RMK A01 T00970091  RH  096%=      5-min Rain = 0
KME1 111731Z 19008KT 10/09 A2989 RMK A01 T00970092  RH  097%=      5-min Rain = 0
KME1 111732Z 20009KT 10/09 A2989 RMK A01 T00970091  RH  096%=      5-min Rain = 0
KME1 111733Z 19008KT 10/09 A2989 RMK A01 T00970091  RH  096%=      5-min Rain = 0
KME1 111734Z 20009KT 10/09 A2989 RMK A01 T00960091  RH  096%=      5-min Rain = 0
KME1 111735Z 19007KT 10/09 A2989 RMK A01 T00960091  RH  097%=      5-min Rain = 0
KME1 111736Z 20008KT 10/09 A2989 RMK A01 T00960092  RH  097%=      5-min Rain = 0
KME1 111737Z 20009KT 10/09 A2989 RMK A01 T00960092  RH  097%=      5-min Rain = 0
KME1 111738Z 20009KT 10/09 A2989 RMK A01 T00960091  RH  097%=      5-min Rain = 0
KME1 111739Z 19009KT 10/09 A2989 RMK A01 T00960091  RH  096%=      5-min Rain = 0
KME1 111740Z 20010KT 10/09 A2989 RMK A01 T00960090  RH  096%=      5-min Rain = 0
KME1 111741Z 20011KT 10/09 A2989 RMK A01 T00960090  RH  096%=      5-min Rain = 0
KME1 111742Z 19011KT 10/09 A2989 RMK A01 T00960090  RH  096%=      5-min Rain = 0
KME1 111743Z 19011KT 10/09 A299 RMK A01 T00960090  RH  096%=      5-min Rain = 0
KME1 111744Z 19011KT 10/09 A299 RMK A01 T00960090  RH  096%=      5-min Rain = 0
KME1 111745Z 20011KT 10/09 A299 RMK A01 T00970090  RH  096%=      5-min Rain = 0
KME1 111746Z 20011KT 10/09 A299 RMK A01 T00960090  RH  096%=      5-min Rain = 0
KME1 111747Z 20010KT 10/09 A299 RMK A01 T00970091  RH  096%=      5-min Rain = 0
KME1 111748Z 20011KT 10/09 A299 RMK A01 T00970091  RH  096%=      5-min Rain = 0
KME1 111749Z 21010KT 10/09 A299 RMK A01 T00970091  RH  096%=      5-min Rain = 0
KME1 111750Z 20011KT 10/09 A299 RMK A01 T00970092  RH  097%=      5-min Rain = 0
KME1 111751Z 20009KT 10/09 A299 RMK A01 T00970092  RH  097%=      5-min Rain = 0
KME1 111752Z 20009KT 10/09 A299 RMK A01 T00960093  RH  097%=      5-min Rain = 0
KME1 111753Z 20009KT 10/09 A299 RMK A01 T00970093  RH  097%=      5-min Rain = 0
KME1 111754Z 20011KT 10/09 A299 RMK A01 T00970093  RH  097%=      5-min Rain = 0
KME1 111755Z 20010KT 10/09 A299 RMK A01 T00970093  RH  098%=      5-min Rain = 0.01
KME1 111756Z 20009KT 10/09 A299 RMK A01 T00970093  RH  098%=      5-min Rain = 0
KME1 111757Z 21008KT 10/09 A299 RMK A01 T00970094  RH  098%=      5-min Rain = 0
KME1 111758Z 20008KT 10/10 A299 RMK A01 T00970095  RH  099%=      5-min Rain = 0
KME1 111759Z 20009KT 10/10 A299 RMK A01 T00970095  RH  099%=      5-min Rain = 0
KME1 111800Z 20011KT 10/10 A299 RMK A01 T00970095  RH  099%=      5-min Rain = 0
KME1 111801Z 19012KT 10/10 A299 RMK A01 T00970095  RH  099%=      5-min Rain = 0
KME1 111802Z 19009KT 10/10 A299 RMK A01 T00970095  RH  099%=      5-min Rain = 0
KME1 111803Z 20010KT 10/10 A299 RMK A01 T00970095  RH  099%=      5-min Rain = 0
KME1 111804Z 19012KT 10/10 A299 RMK A01 T00970095  RH  099%=      5-min Rain = 0
KME1 111805Z 19011KT 10/10 A299 RMK A01 T00970095  RH  099%=      5-min Rain = 0
KME1 111806Z 19013KT 10/10 A299 RMK A01 T00970095  RH  099%=      5-min Rain = 0
KME1 111807Z 19012G17KT 10/09 A299 RMK A01 T00960094  RH  098%=      5-min Rain = 0.01
KME1 111808Z 20011KT 10/09 A299 RMK A01 T00960094  RH  098%=      5-min Rain = 0
KME1 111809Z 19011KT 10/10 A2991 RMK A01 T00960095  RH  099%=      5-min Rain = 0
KME1 111810Z 20013KT 10/10 A299 RMK A01 T00960095  RH  099%=      5-min Rain = 0
KME1 111811Z 20013G18KT 10/09 A299 RMK A01 T00960094  RH  099%=      5-min Rain = 0
KME1 111812Z 20009KT 10/09 A299 RMK A01 T00960094  RH  099%=      5-min Rain = 0
KME1 111813Z 20011KT 10/10 A299 RMK A01 T00960095  RH  099%=      5-min Rain = 0
KME1 111814Z 20009KT 10/09 A299 RMK A01 T00950094  RH  099%=      5-min Rain = 0
KME1 111815Z 20011KT 10/10 A299 RMK A01 T00950095  RH  100%=      5-min Rain = 0
KME1 111816Z 20011KT 10/10 A299 RMK A01 T00950095  RH  100%=      5-min Rain = 0
KME1 111817Z 20012KT 10/10 A299 RMK A01 T00950095  RH  100%=      5-min Rain = 0.01
KME1 111818Z 20011KT 10/10 A299 RMK A01 T00950095  RH  100%=      5-min Rain = 0
KME1 111819Z 20011KT 10/10 A299 RMK A01 T00950095  RH  100%=      5-min Rain = 0
KME1 111820Z 20012KT 10/10 A299 RMK A01 T00950095  RH  100%=      5-min Rain = 0
KME1 111821Z 20009KT 10/10 A2989 RMK A01 T00950095  RH  100%=      5-min Rain = 0
KME1 111822Z 20010KT 10/10 A2989 RMK A01 T00950096  RH  100%=      5-min Rain = 0
KME1 111823Z 20012KT 10/10 A2989 RMK A01 T00960096  RH  100%=      5-min Rain = 0
KME1 111824Z 20011KT 10/10 A2989 RMK A01 T00960096  RH  100%=      5-min Rain = 0
KME1 111825Z 20010KT 10/10 A2989 RMK A01 T00960096  RH  100%=      5-min Rain = 0
KME1 111826Z 20010KT 10/10 A2989 RMK A01 T00960096  RH  100%=      5-min Rain = 0
KME1 111827Z 20011KT 10/10 A2989 RMK A01 T00960096  RH  100%=      5-min Rain = 0
KME1 111828Z 21009KT 10/10 A2989 RMK A01 T00960096  RH  100%=      5-min Rain = 0
KME1 111829Z 20008KT 10/10 A2989 RMK A01 T00970097  RH  100%=      5-min Rain = 0
KME1 111830Z 20010KT 10/10 A2989 RMK A01 T00970097  RH  100%=      5-min Rain = 0
KME1 111831Z 20009KT 10/10 A2989 RMK A01 T00970097  RH  100%=      5-min Rain = 0
KME1 111832Z 20008KT 10/10 A2988 RMK A01 T00970097  RH  100%=      5-min Rain = 0
KME1 111833Z 20009KT 10/10 A2988 RMK A01 T00970097  RH  100%=      5-min Rain = 0
KME1 111834Z 20008KT 10/10 A2987 RMK A01 T00970097  RH  100%=      5-min Rain = 0
KME1 111835Z 19010KT 10/10 A2987 RMK A01 T00970097  RH  100%=      5-min Rain = 0
KME1 111836Z 19008KT 10/10 A2987 RMK A01 T00970095  RH  099%=      5-min Rain = 0
KME1 111837Z 20008KT 10/10 A2987 RMK A01 T00970096  RH  099%=      5-min Rain = 0
KME1 111838Z 21008KT 10/10 A2987 RMK A01 T00980097  RH  099%=      5-min Rain = 0
KME1 111839Z 20008KT 10/10 A2987 RMK A01 T00980096  RH  099%=      5-min Rain = 0
KME1 111840Z 21008KT 10/10 A2987 RMK A01 T00980096  RH  099%=      5-min Rain = 0
KME1 111841Z 21007KT 10/10 A2987 RMK A01 T00980097  RH  100%=      5-min Rain = 0
KME1 111842Z 20007KT 10/10 A2987 RMK A01 T00980099  RH  100%=      5-min Rain = 0
KME1 111843Z 19009KT 10/10 A2987 RMK A01 T00980098  RH  100%=      5-min Rain = 0
KME1 111844Z 20007KT 10/10 A2987 RMK A01 T00980097  RH  099%=      5-min Rain = 0
KME1 111845Z 19007KT 10/10 A2987 RMK A01 T00980098  RH  100%=      5-min Rain = 0
KME1 111846Z 21007KT 10/10 A2987 RMK A01 T00980097  RH  099%=      5-min Rain = 0
KME1 111847Z 21009KT 10/10 A2987 RMK A01 T00980097  RH  099%=      5-min Rain = 0
KME1 111848Z 21008KT 10/10 A2987 RMK A01 T00980097  RH  099%=      5-min Rain = 0
KME1 111849Z 20009KT 10/10 A2987 RMK A01 T00980098  RH  100%=      5-min Rain = 0
KME1 111850Z 19007KT 10/10 A2987 RMK A01 T00980097  RH  100%=      5-min Rain = 0
KME1 111851Z 21009KT 10/10 A2987 RMK A01 T00980098  RH  100%=      5-min Rain = 0
KME1 111852Z 21012KT 10/10 A2987 RMK A01 T00980097  RH  099%=      5-min Rain = 0
KME1 111853Z 20011KT 10/10 A2987 RMK A01 T00980095  RH  098%=      5-min Rain = 0
KME1 111854Z 21010KT 10/10 A2988 RMK A01 T00970095  RH  098%=      5-min Rain = 0
KME1 111855Z 20009KT 10/09 A2988 RMK A01 T00970094  RH  098%=      5-min Rain = 0
KME1 111856Z 19011KT 10/10 A2988 RMK A01 T00980095  RH  098%=      5-min Rain = 0
KME1 111857Z 19012KT 10/09 A2988 RMK A01 T00970094  RH  098%=      5-min Rain = 0
KME1 111858Z 20010KT 10/09 A2987 RMK A01 T00980094  RH  098%=      5-min Rain = 0
KME1 111859Z 20013KT 10/09 A2987 RMK A01 T00970094  RH  098%=      5-min Rain = 0
KME1 111900Z 20009KT 10/09 A2987 RMK A01 T00980094  RH  098%=      5-min Rain = 0
KME1 111901Z 20011KT 10/10 A2987 RMK A01 T00980095  RH  098%=      5-min Rain = 0
KME1 111902Z 19009KT 10/09 A2987 RMK A01 T00980093  RH  097%=      5-min Rain = 0
KME1 111903Z 20008G13KT 10/09 A2987 RMK A01 T00980093  RH  097%=      5-min Rain = 0
KME1 111904Z 20010KT 10/09 A2987 RMK A01 T00980094  RH  097%=      5-min Rain = 0
KME1 111905Z 20009KT 10/09 A2987 RMK A01 T00990093  RH  097%=      5-min Rain = 0
KME1 111906Z 20010G15KT 10/09 A2987 RMK A01 T00990093  RH  096%=      5-min Rain = 0
KME1 111907Z 20009G14KT 10/09 A2987 RMK A01 T00990092  RH  096%=      5-min Rain = 0
KME1 111908Z 20010KT 10/09 A2987 RMK A01 T00990093  RH  096%=      5-min Rain = 0
KME1 111909Z 21009KT 10/09 A2987 RMK A01 T00990093  RH  096%=      5-min Rain = 0
KME1 111910Z 21010KT 10/09 A2987 RMK A01 T01000094  RH  096%=      5-min Rain = 0
KME1 111911Z 19011KT 10/09 A2987 RMK A01 T00990092  RH  095%=      5-min Rain = 0
KME1 111912Z 20012KT 10/09 A2987 RMK A01 T00990092  RH  096%=      5-min Rain = 0
KME1 111913Z 20013KT 10/09 A2987 RMK A01 T00990091  RH  095%=      5-min Rain = 0
KME1 111914Z 20012KT 10/09 A2987 RMK A01 T00990091  RH  095%=      5-min Rain = 0
KME1 111915Z 20009KT 10/09 A2987 RMK A01 T00980091  RH  095%=      5-min Rain = 0
KME1 111916Z 20011KT 10/09 A2987 RMK A01 T00990092  RH  096%=      5-min Rain = 0
KME1 111917Z 20013KT 10/09 A2987 RMK A01 T00990092  RH  095%=      5-min Rain = 0
KME1 111918Z 20011KT 10/09 A2987 RMK A01 T00990091  RH  095%=      5-min Rain = 0
KME1 111919Z 20012KT 10/09 A2987 RMK A01 T00990091  RH  095%=      5-min Rain = 0
KME1 111920Z 20013KT 10/09 A2987 RMK A01 T00990091  RH  095%=      5-min Rain = 0
KME1 111921Z 20013KT 10/09 A2987 RMK A01 T00990090  RH  094%=      5-min Rain = 0
KME1 111922Z 20012KT 10/09 A2987 RMK A01 T00980089  RH  094%=      5-min Rain = 0
KME1 111923Z 20013KT 10/09 A2987 RMK A01 T00980089  RH  094%=      5-min Rain = 0
KME1 111924Z 20011KT 10/09 A2987 RMK A01 T00980089  RH  094%=      5-min Rain = 0
KME1 111925Z 20009KT 10/09 A2987 RMK A01 T00980089  RH  094%=      5-min Rain = 0
KME1 111926Z 20012KT 10/09 A2987 RMK A01 T00980090  RH  095%=      5-min Rain = 0
KME1 111927Z 20011KT 10/09 A2987 RMK A01 T00980089  RH  094%=      5-min Rain = 0
KME1 111928Z 20012KT 10/09 A2986 RMK A01 T00980089  RH  094%=      5-min Rain = 0
KME1 111929Z 21014KT 10/09 A2986 RMK A01 T00980089  RH  094%=      5-min Rain = 0
KME1 111930Z 20011KT 10/09 A2986 RMK A01 T00980088  RH  094%=      5-min Rain = 0
KME1 111931Z 20010KT 10/09 A2986 RMK A01 T00980089  RH  094%=      5-min Rain = 0
KME1 111932Z 20013KT 10/09 A2986 RMK A01 T00980088  RH  094%=      5-min Rain = 0
KME1 111933Z 21012KT 10/09 A2987 RMK A01 T00980087  RH  093%=      5-min Rain = 0
KME1 111934Z 20012KT 10/09 A2987 RMK A01 T00980088  RH  093%=      5-min Rain = 0
KME1 111935Z 21013KT 10/09 A2986 RMK A01 T00980088  RH  093%=      5-min Rain = 0
KME1 111936Z 21013KT 10/09 A2986 RMK A01 T00980088  RH  093%=      5-min Rain = 0
KME1 111937Z 20012KT 10/09 A2986 RMK A01 T00980087  RH  093%=      5-min Rain = 0
KME1 111938Z 20011KT 10/09 A2986 RMK A01 T00980088  RH  093%=      5-min Rain = 0
KME1 111939Z 20009KT 10/09 A2986 RMK A01 T00980088  RH  093%=      5-min Rain = 0
KME1 111940Z 20010KT 10/09 A2986 RMK A01 T00980089  RH  094%=      5-min Rain = 0
KME1 111941Z 20010KT 10/09 A2986 RMK A01 T00980089  RH  094%=      5-min Rain = 0
KME1 111942Z 21012KT 10/09 A2986 RMK A01 T00980089  RH  094%=      5-min Rain = 0
KME1 111943Z 21013KT 10/09 A2986 RMK A01 T00980089  RH  094%=      5-min Rain = 0
KME1 111944Z 21011KT 10/09 A2986 RMK A01 T00980088  RH  093%=      5-min Rain = 0
KME1 111945Z 21010KT 10/09 A2986 RMK A01 T00980088  RH  093%=      5-min Rain = 0
KME1 111946Z 21011KT 10/09 A2986 RMK A01 T00980088  RH  093%=      5-min Rain = 0
KME1 111947Z 21009KT 10/09 A2986 RMK A01 T00980088  RH  094%=      5-min Rain = 0
KME1 111948Z 20007KT 10/09 A2986 RMK A01 T00980089  RH  094%=      5-min Rain = 0
KME1 111949Z 20008KT 10/09 A2986 RMK A01 T00980089  RH  094%=      5-min Rain = 0
KME1 111950Z 20010KT 10/09 A2986 RMK A01 T00980088  RH  094%=      5-min Rain = 0
KME1 111951Z 20009KT 10/09 A2986 RMK A01 T00980088  RH  093%=      5-min Rain = 0
KME1 111952Z 20006KT 10/09 A2986 RMK A01 T00980087  RH  093%=      5-min Rain = 0
KME1 111953Z 19006KT 10/09 A2986 RMK A01 T00980088  RH  094%=      5-min Rain = 0
KME1 111954Z 19008KT 10/09 A2985 RMK A01 T00980088  RH  094%=      5-min Rain = 0
KME1 111955Z 20008KT 10/09 A2985 RMK A01 T00980088  RH  094%=      5-min Rain = 0
KME1 111956Z 20010KT 10/09 A2985 RMK A01 T00980088  RH  094%=      5-min Rain = 0
KME1 111957Z 20009KT 10/09 A2985 RMK A01 T00980088  RH  094%=      5-min Rain = 0
KME1 111958Z 21008KT 10/09 A2985 RMK A01 T00980088  RH  093%=      5-min Rain = 0
KME1 111959Z 21010KT 10/09 A2985 RMK A01 T00980088  RH  093%=      5-min Rain = 0
KME1 112000Z 21010KT 10/09 A2985 RMK A01 T00980087  RH  093%=      5-min Rain = 0
KME1 112001Z 20010KT 10/09 A2985 RMK A01 T00980087  RH  093%=      5-min Rain = 0
KME1 112002Z 20010KT 10/09 A2984 RMK A01 T00980088  RH  093%=      5-min Rain = 0
KME1 112003Z 19010KT 10/09 A2984 RMK A01 T00980088  RH  093%=      5-min Rain = 0
KME1 112004Z 19006KT 10/09 A2984 RMK A01 T00980088  RH  093%=      5-min Rain = 0
KME1 112005Z 19008KT 10/09 A2984 RMK A01 T00990089  RH  094%=      5-min Rain = 0
KME1 112006Z 19008KT 10/09 A2984 RMK A01 T00990090  RH  094%=      5-min Rain = 0
KME1 112007Z 21007KT 10/09 A2984 RMK A01 T00990089  RH  094%=      5-min Rain = 0
KME1 112008Z 21006KT 10/09 A2984 RMK A01 T00990091  RH  094%=      5-min Rain = 0
KME1 112009Z 20007KT 10/09 A2984 RMK A01 T00990091  RH  094%=      5-min Rain = 0
KME1 112010Z 21006KT 10/09 A2985 RMK A01 T00990091  RH  094%=      5-min Rain = 0
KME1 112011Z 20009KT 10/09 A2985 RMK A01 T00990091  RH  094%=      5-min Rain = 0
KME1 112012Z 19007KT 10/09 A2985 RMK A01 T00990090  RH  094%=      5-min Rain = 0
KME1 112013Z 20009KT 10/09 A2985 RMK A01 T01000090  RH  094%=      5-min Rain = 0
KME1 112014Z 20007KT 10/09 A2985 RMK A01 T01000091  RH  094%=      5-min Rain = 0
KME1 112015Z 20009KT 10/09 A2984 RMK A01 T01000092  RH  094%=      5-min Rain = 0
KME1 112016Z 19006KT 10/09 A2984 RMK A01 T01000091  RH  094%=      5-min Rain = 0
KME1 112017Z 19008KT 10/09 A2984 RMK A01 T01000093  RH  095%=      5-min Rain = 0
KME1 112018Z 19008KT 10/09 A2984 RMK A01 T01000092  RH  094%=      5-min Rain = 0
KME1 112019Z 19009KT 10/09 A2983 RMK A01 T01000091  RH  094%=      5-min Rain = 0
KME1 112020Z 19007KT 10/09 A2983 RMK A01 T01000090  RH  094%=      5-min Rain = 0
KME1 112021Z 19008KT 10/09 A2983 RMK A01 T01000091  RH  094%=      5-min Rain = 0
KME1 112022Z 19008KT 10/09 A2983 RMK A01 T01000091  RH  094%=      5-min Rain = 0
KME1 112023Z 19008KT 10/09 A2983 RMK A01 T01000092  RH  095%=      5-min Rain = 0
KME1 112024Z 19008KT 10/09 A2982 RMK A01 T01000092  RH  095%=      5-min Rain = 0
KME1 112025Z 18008KT 10/09 A2983 RMK A01 T01000092  RH  095%=      5-min Rain = 0
KME1 112026Z 19009KT 10/09 A2983 RMK A01 T01000092  RH  094%=      5-min Rain = 0
KME1 112027Z 19009KT 10/09 A2982 RMK A01 T01000091  RH  094%=      5-min Rain = 0
KME1 112028Z 20007KT 10/09 A2983 RMK A01 T01000091  RH  094%=      5-min Rain = 0
KME1 112029Z 19007KT 10/09 A2983 RMK A01 T01000092  RH  095%=      5-min Rain = 0
KME1 112030Z 19007KT 10/09 A2983 RMK A01 T01000092  RH  094%=      5-min Rain = 0
KME1 112031Z 19007KT 10/09 A2983 RMK A01 T01010093  RH  095%=      5-min Rain = 0
KME1 112032Z 19009KT 10/09 A2982 RMK A01 T01010093  RH  095%=      5-min Rain = 0
KME1 112033Z 19008KT 10/09 A2982 RMK A01 T01010092  RH  094%=      5-min Rain = 0
KME1 112034Z 20007KT 10/09 A2982 RMK A01 T01010092  RH  095%=      5-min Rain = 0
KME1 112035Z 19007KT 10/09 A2982 RMK A01 T01010092  RH  095%=      5-min Rain = 0
KME1 112036Z 19006KT 10/09 A2982 RMK A01 T01010093  RH  095%=      5-min Rain = 0
KME1 112037Z 19006KT 10/09 A2982 RMK A01 T01020094  RH  095%=      5-min Rain = 0
KME1 112038Z 19006KT 10/09 A2982 RMK A01 T01020094  RH  095%=      5-min Rain = 0
KME1 112039Z 20007KT 10/09 A2982 RMK A01 T01020094  RH  095%=      5-min Rain = 0
KME1 112040Z 20008KT 10/09 A2982 RMK A01 T01020092  RH  094%=      5-min Rain = 0
KME1 112041Z 20007KT 10/09 A2982 RMK A01 T01020092  RH  093%=      5-min Rain = 0
KME1 112042Z 20005KT 10/09 A2982 RMK A01 T01020092  RH  094%=      5-min Rain = 0
KME1 112043Z 19005KT 10/09 A2981 RMK A01 T01020091  RH  093%=      5-min Rain = 0
KME1 112044Z 19007KT 10/09 A2981 RMK A01 T01020091  RH  093%=      5-min Rain = 0
KME1 112045Z 20005KT 10/09 A2981 RMK A01 T01020092  RH  094%=      5-min Rain = 0
KME1 112046Z 20007KT 10/09 A2981 RMK A01 T01020092  RH  094%=      5-min Rain = 0
KME1 112047Z 20007KT 10/09 A2981 RMK A01 T01020092  RH  093%=      5-min Rain = 0
KME1 112048Z 19007KT 10/09 A2981 RMK A01 T01020092  RH  093%=      5-min Rain = 0
KME1 112049Z 19008KT 10/09 A2981 RMK A01 T01020092  RH  093%=      5-min Rain = 0.01
KME1 112050Z 18009KT 10/09 A298 RMK A01 T01020092  RH  094%=      5-min Rain = 0
KME1 112051Z 18008KT 10/09 A298 RMK A01 T01020092  RH  094%=      5-min Rain = 0
KME1 112052Z 17008KT 10/09 A2979 RMK A01 T01020092  RH  094%=      5-min Rain = 0
KME1 112053Z 17009KT 10/09 A2979 RMK A01 T01020093  RH  094%=      5-min Rain = 0
KME1 112054Z 17011KT 10/09 A2978 RMK A01 T01010092  RH  094%=      5-min Rain = 0
KME1 112055Z 17009KT 10/09 A2978 RMK A01 T01010091  RH  093%=      5-min Rain = 0
KME1 112056Z 17009KT 10/09 A2978 RMK A01 T01010092  RH  094%=      5-min Rain = 0
KME1 112057Z 18008KT 10/09 A2978 RMK A01 T01010091  RH  094%=      5-min Rain = 0
KME1 112058Z 18007KT 10/09 A2978 RMK A01 T01010091  RH  094%=      5-min Rain = 0
KME1 112059Z 18005KT 10/09 A2979 RMK A01 T01010092  RH  094%=      5-min Rain = 0
KME1 112100Z 19005KT 10/09 A2979 RMK A01 T01010092  RH  094%=      5-min Rain = 0
KME1 112101Z 19003KT 10/09 A2978 RMK A01 T01010093  RH  095%=      5-min Rain = 0
KME1 112102Z 18006KT 10/09 A2978 RMK A01 T01020094  RH  095%=      5-min Rain = 0
KME1 112103Z 18009KT 10/09 A2978 RMK A01 T01020093  RH  094%=      5-min Rain = 0
KME1 112104Z 19011KT 10/09 A2978 RMK A01 T01020092  RH  094%=      5-min Rain = 0
KME1 112105Z 19010KT 10/09 A2978 RMK A01 T01020092  RH  094%=      5-min Rain = 0
KME1 112106Z 18009KT 10/09 A2977 RMK A01 T01020093  RH  094%=      5-min Rain = 0
KME1 112107Z 18011G16KT 10/09 A2977 RMK A01 T01020093  RH  094%=      5-min Rain = 0
KME1 112108Z 18013KT 10/09 A2976 RMK A01 T01020093  RH  094%=      5-min Rain = 0
KME1 112109Z 18012KT 10/09 A2976 RMK A01 T01020092  RH  094%=      5-min Rain = 0
KME1 112110Z 18010KT 10/09 A2976 RMK A01 T01020093  RH  095%=      5-min Rain = 0
KME1 112111Z 17013KT 10/09 A2975 RMK A01 T01020094  RH  095%=      5-min Rain = 0
KME1 112112Z 18010KT 10/09 A2975 RMK A01 T01020094  RH  094%=      5-min Rain = 0
KME1 112113Z 18010KT 10/10 A2975 RMK A01 T01030095  RH  095%=      5-min Rain = 0
KME1 112114Z 18013KT 10/10 A2975 RMK A01 T01030095  RH  095%=      5-min Rain = 0
KME1 112115Z 18012KT 10/10 A2975 RMK A01 T01030095  RH  094%=      5-min Rain = 0
KME1 112116Z 18011KT 10/10 A2975 RMK A01 T01040095  RH  094%=      5-min Rain = 0
KME1 112117Z 18013KT 10/10 A2975 RMK A01 T01040095  RH  094%=      5-min Rain = 0
KME1 112118Z 18012KT 11/10 A2975 RMK A01 T01050095  RH  094%=      5-min Rain = 0
KME1 112119Z 18011KT 11/10 A2975 RMK A01 T01060096  RH  094%=      5-min Rain = 0
KME1 112120Z 19012KT 11/10 A2975 RMK A01 T01060096  RH  094%=      5-min Rain = 0
KME1 112121Z 18010KT 11/10 A2974 RMK A01 T01060096  RH  093%=      5-min Rain = 0
KME1 112122Z 18012KT 11/10 A2974 RMK A01 T01070097  RH  094%=      5-min Rain = 0
KME1 112123Z 18011KT 11/10 A2974 RMK A01 T01070097  RH  093%=      5-min Rain = 0
KME1 112124Z 19012KT 11/10 A2974 RMK A01 T01080097  RH  093%=      5-min Rain = 0
KME1 112125Z 19013KT 11/10 A2974 RMK A01 T01090097  RH  092%=      5-min Rain = 0
KME1 112126Z 19013KT 11/10 A2974 RMK A01 T01100096  RH  091%=      5-min Rain = 0
KME1 112127Z 18014KT 11/10 A2974 RMK A01 T01110095  RH  090%=      5-min Rain = 0
KME1 112128Z 19014KT 11/10 A2974 RMK A01 T01120095  RH  089%=      5-min Rain = 0
KME1 112129Z 18013KT 11/09 A2974 RMK A01 T01130094  RH  088%=      5-min Rain = 0
KME1 112130Z 19014KT 11/09 A2974 RMK A01 T01130094  RH  088%=      5-min Rain = 0
KME1 112131Z 18014KT 11/09 A2974 RMK A01 T01130093  RH  087%=      5-min Rain = 0
KME1 112132Z 19013KT 11/09 A2974 RMK A01 T01130092  RH  087%=      5-min Rain = 0
KME1 112133Z 19012KT 11/09 A2974 RMK A01 T01120092  RH  088%=      5-min Rain = 0
KME1 112134Z 19011KT 11/09 A2974 RMK A01 T01120093  RH  088%=      5-min Rain = 0
KME1 112135Z 19013KT 11/09 A2974 RMK A01 T01110093  RH  088%=      5-min Rain = 0
KME1 112136Z 19011KT 11/09 A2974 RMK A01 T01110093  RH  088%=      5-min Rain = 0
KME1 112137Z 20011KT 11/09 A2974 RMK A01 T01110094  RH  089%=      5-min Rain = 0
KME1 112138Z 19012KT 11/09 A2974 RMK A01 T01110093  RH  089%=      5-min Rain = 0
KME1 112139Z 19011KT 11/09 A2974 RMK A01 T01110093  RH  089%=      5-min Rain = 0
KME1 112140Z 20011KT 11/09 A2974 RMK A01 T01110093  RH  089%=      5-min Rain = 0
KME1 112141Z 21012KT 11/09 A2974 RMK A01 T01110093  RH  089%=      5-min Rain = 0
KME1 112142Z 20011KT 11/09 A2975 RMK A01 T01110093  RH  089%=      5-min Rain = 0
KME1 112143Z 20011KT 11/09 A2975 RMK A01 T01110093  RH  089%=      5-min Rain = 0
KME1 112144Z 22008KT 11/09 A2976 RMK A01 T01110093  RH  089%=      5-min Rain = 0
KME1 112145Z 21008KT 11/09 A2976 RMK A01 T01110094  RH  089%=      5-min Rain = 0
KME1 112146Z 22008KT 11/09 A2976 RMK A01 T01110094  RH  089%=      5-min Rain = 0
KME1 112147Z 22009G14KT 11/09 A2976 RMK A01 T01110094  RH  089%=      5-min Rain = 0
KME1 112148Z 21011KT 11/09 A2976 RMK A01 T01110093  RH  089%=      5-min Rain = 0
KME1 112149Z 21012KT 11/09 A2976 RMK A01 T01110092  RH  088%=      5-min Rain = 0
KME1 112150Z 21013KT 11/09 A2977 RMK A01 T01110092  RH  088%=      5-min Rain = 0
KME1 112151Z 21010KT 11/09 A2977 RMK A01 T01110092  RH  088%=      5-min Rain = 0
KME1 112152Z 20011KT 11/09 A2977 RMK A01 T01110092  RH  088%=      5-min Rain = 0
KME1 112153Z 21009KT 11/09 A2977 RMK A01 T01110093  RH  089%=      5-min Rain = 0
KME1 112154Z 21010KT 11/09 A2977 RMK A01 T01110093  RH  089%=      5-min Rain = 0
KME1 112155Z 20010KT 11/09 A2977 RMK A01 T01110093  RH  088%=      5-min Rain = 0
KME1 112156Z 21008KT 11/09 A2977 RMK A01 T01110093  RH  088%=      5-min Rain = 0
KME1 112157Z 20009KT 11/09 A2977 RMK A01 T01120094  RH  089%=      5-min Rain = 0
KME1 112158Z 21008KT 11/09 A2978 RMK A01 T01120093  RH  088%=      5-min Rain = 0
KME1 112159Z 21010KT 11/09 A2978 RMK A01 T01120093  RH  088%=      5-min Rain = 0
KME1 112200Z 21011KT 11/09 A2978 RMK A01 T01120092  RH  088%=      5-min Rain = 0
KME1 112201Z 21009KT 11/09 A2978 RMK A01 T01120092  RH  088%=      5-min Rain = 0
KME1 112202Z 22007KT 11/09 A2978 RMK A01 T01130093  RH  088%=      5-min Rain = 0
KME1 112203Z 22007KT 11/09 A2979 RMK A01 T01140094  RH  088%=      5-min Rain = 0
KME1 112204Z 21006KT 11/09 A2979 RMK A01 T01140094  RH  088%=      5-min Rain = 0
KME1 112205Z 22008KT 11/10 A2979 RMK A01 T01140095  RH  088%=      5-min Rain = 0
KME1 112206Z 22009KT 12/09 A2979 RMK A01 T01150094  RH  087%=      5-min Rain = 0
KME1 112207Z 22009KT 12/09 A2979 RMK A01 T01160094  RH  087%=      5-min Rain = 0
KME1 112208Z 22010KT 12/09 A2979 RMK A01 T01150093  RH  086%=      5-min Rain = 0
KME1 112209Z 22010KT 12/09 A2979 RMK A01 T01160093  RH  086%=      5-min Rain = 0
KME1 112210Z 22009KT 12/09 A2979 RMK A01 T01160094  RH  086%=      5-min Rain = 0
KME1 112211Z 22010KT 12/09 A298 RMK A01 T01160094  RH  086%=      5-min Rain = 0
KME1 112212Z 23008KT 12/09 A298 RMK A01 T01170093  RH  086%=      5-min Rain = 0
KME1 112213Z 23006KT 12/09 A2979 RMK A01 T01160094  RH  086%=      5-min Rain = 0
KME1 112214Z 24006KT 12/09 A2979 RMK A01 T01170094  RH  086%=      5-min Rain = 0
KME1 112215Z 24007KT 12/09 A2979 RMK A01 T01170094  RH  086%=      5-min Rain = 0
KME1 112216Z 23005KT 12/09 A2979 RMK A01 T01180094  RH  086%=      5-min Rain = 0
KME1 112217Z 21004KT 12/10 A2979 RMK A01 T01180095  RH  085%=      5-min Rain = 0
KME1 112218Z 22008KT 12/10 A2979 RMK A01 T01180095  RH  085%=      5-min Rain = 0
KME1 112219Z 22007KT 12/10 A2979 RMK A01 T01190095  RH  085%=      5-min Rain = 0
KME1 112220Z 21010KT 12/09 A2979 RMK A01 T01190094  RH  085%=      5-min Rain = 0
KME1 112221Z 21009KT 12/09 A2978 RMK A01 T01180093  RH  085%=      5-min Rain = 0
KME1 112222Z 21009KT 12/09 A2978 RMK A01 T01180093  RH  085%=      5-min Rain = 0
KME1 112223Z 20009KT 12/09 A2978 RMK A01 T01180093  RH  085%=      5-min Rain = 0
KME1 112224Z 21008KT 12/09 A2978 RMK A01 T01180094  RH  085%=      5-min Rain = 0
KME1 112225Z 21008KT 12/09 A2978 RMK A01 T01180093  RH  085%=      5-min Rain = 0
KME1 112226Z 22009KT 12/09 A2978 RMK A01 T01180093  RH  085%=      5-min Rain = 0
KME1 112227Z 22007KT 12/09 A2978 RMK A01 T01170092  RH  084%=      5-min Rain = 0
KME1 112228Z 21007KT 12/09 A2978 RMK A01 T01170092  RH  085%=      5-min Rain = 0
KME1 112229Z 21005KT 12/09 A2979 RMK A01 T01170093  RH  085%=      5-min Rain = 0
KME1 112230Z 22007KT 12/09 A2979 RMK A01 T01180094  RH  085%=      5-min Rain = 0
KME1 112231Z 21006KT 12/09 A2979 RMK A01 T01180092  RH  084%=      5-min Rain = 0
KME1 112232Z 21008KT 12/09 A2979 RMK A01 T01180093  RH  085%=      5-min Rain = 0
KME1 112233Z 21008KT 12/09 A2979 RMK A01 T01180092  RH  084%=      5-min Rain = 0
KME1 112234Z 22007KT 12/09 A298 RMK A01 T01180092  RH  084%=      5-min Rain = 0
KME1 112235Z 22008KT 12/09 A298 RMK A01 T01180092  RH  084%=      5-min Rain = 0
KME1 112236Z 20008KT 12/09 A298 RMK A01 T01180093  RH  085%=      5-min Rain = 0
KME1 112237Z 20011KT 12/09 A2979 RMK A01 T01180092  RH  084%=      5-min Rain = 0
KME1 112238Z 20011KT 12/09 A2979 RMK A01 T01180091  RH  084%=      5-min Rain = 0
KME1 112239Z 20011KT 12/09 A2979 RMK A01 T01180091  RH  084%=      5-min Rain = 0
KME1 112240Z 20010KT 12/09 A2979 RMK A01 T01170090  RH  084%=      5-min Rain = 0
KME1 112241Z 21009KT 12/09 A2979 RMK A01 T01170091  RH  084%=      5-min Rain = 0
KME1 112242Z 21009KT 12/09 A2979 RMK A01 T01170091  RH  084%=      5-min Rain = 0
KME1 112243Z 20012KT 12/09 A2979 RMK A01 T01170091  RH  084%=      5-min Rain = 0
KME1 112244Z 20008KT 12/09 A2979 RMK A01 T01160089  RH  084%=      5-min Rain = 0
KME1 112245Z 19011KT 12/09 A2979 RMK A01 T01160090  RH  084%=      5-min Rain = 0
KME1 112246Z 21011KT 12/09 A2979 RMK A01 T01160090  RH  084%=      5-min Rain = 0
KME1 112247Z 20009KT 12/09 A2979 RMK A01 T01160090  RH  084%=      5-min Rain = 0
KME1 112248Z 20008KT 12/09 A2979 RMK A01 T01160091  RH  084%=      5-min Rain = 0
KME1 112249Z 20007KT 12/09 A2979 RMK A01 T01160091  RH  084%=      5-min Rain = 0
KME1 112250Z 20009KT 12/09 A2979 RMK A01 T01160091  RH  084%=      5-min Rain = 0
KME1 112251Z 20012KT 12/09 A2979 RMK A01 T01160090  RH  084%=      5-min Rain = 0
KME1 112252Z 20009KT 12/09 A2979 RMK A01 T01160090  RH  084%=      5-min Rain = 0
KME1 112253Z 20011KT 12/09 A2979 RMK A01 T01160090  RH  084%=      5-min Rain = 0
KME1 112254Z 20011KT 12/09 A2979 RMK A01 T01160090  RH  084%=      5-min Rain = 0
KME1 112255Z 20008KT 12/09 A2979 RMK A01 T01160091  RH  084%=      5-min Rain = 0
KME1 112256Z 19008KT 12/09 A2979 RMK A01 T01160092  RH  085%=      5-min Rain = 0
KME1 112257Z 19009KT 12/09 A2979 RMK A01 T01160093  RH  085%=      5-min Rain = 0
KME1 112258Z 19010G16KT 12/09 A2979 RMK A01 T01160092  RH  085%=      5-min Rain = 0
KME1 112259Z 20012G18KT 12/09 A2979 RMK A01 T01160091  RH  085%=      5-min Rain = 0
KME1 112300Z 19010KT 12/09 A2979 RMK A01 T01160091  RH  085%=      5-min Rain = 0
KME1 112301Z 19010KT 12/09 A2979 RMK A01 T01160091  RH  085%=      5-min Rain = 0
KME1 112302Z 20011KT 12/09 A2979 RMK A01 T01150091  RH  085%=      5-min Rain = 0
KME1 112303Z 20010KT 12/09 A2979 RMK A01 T01150090  RH  085%=      5-min Rain = 0
KME1 112304Z 20012KT 12/09 A2979 RMK A01 T01160090  RH  084%=      5-min Rain = 0
KME1 112305Z 20010KT 12/09 A2979 RMK A01 T01150090  RH  084%=      5-min Rain = 0
KME1 112306Z 21011G16KT 12/09 A2979 RMK A01 T01150090  RH  084%=      5-min Rain = 0
KME1 112307Z 20013KT 12/09 A2979 RMK A01 T01150088  RH  084%=      5-min Rain = 0
KME1 112308Z 20013KT 12/09 A2979 RMK A01 T01150088  RH  083%=      5-min Rain = 0
KME1 112309Z 20012KT 12/09 A2979 RMK A01 T01150088  RH  083%=      5-min Rain = 0
KME1 112310Z 20013KT 12/09 A2979 RMK A01 T01150088  RH  083%=      5-min Rain = 0
KME1 112311Z 20011KT 12/09 A2979 RMK A01 T01150088  RH  084%=      5-min Rain = 0
KME1 112312Z 20011KT 11/09 A2979 RMK A01 T01140088  RH  084%=      5-min Rain = 0
KME1 112313Z 20012KT 11/09 A2979 RMK A01 T01140088  RH  084%=      5-min Rain = 0
KME1 112314Z 20013KT 11/09 A2979 RMK A01 T01140088  RH  084%=      5-min Rain = 0
KME1 112315Z 20012KT 11/09 A2979 RMK A01 T01140087  RH  084%=      5-min Rain = 0
KME1 112316Z 20011KT 11/09 A2979 RMK A01 T01140088  RH  084%=      5-min Rain = 0
KME1 112317Z 20012KT 11/09 A298 RMK A01 T01140088  RH  084%=      5-min Rain = 0
KME1 112318Z 21012KT 11/09 A298 RMK A01 T01140088  RH  084%=      5-min Rain = 0
KME1 112319Z 21011KT 11/09 A2979 RMK A01 T01140088  RH  084%=      5-min Rain = 0
KME1 112320Z 20011KT 11/09 A2979 RMK A01 T01140088  RH  084%=      5-min Rain = 0
KME1 112321Z 20011KT 11/09 A2979 RMK A01 T01140088  RH  084%=      5-min Rain = 0
KME1 112322Z 20011KT 11/09 A2979 RMK A01 T01140087  RH  084%=      5-min Rain = 0
KME1 112323Z 20012KT 11/09 A2979 RMK A01 T01130087  RH  084%=      5-min Rain = 0
KME1 112324Z 20012KT 11/09 A2979 RMK A01 T01130087  RH  084%=      5-min Rain = 0
KME1 112325Z 20010KT 11/09 A2979 RMK A01 T01140087  RH  084%=      5-min Rain = 0
KME1 112326Z 20010KT 11/09 A2978 RMK A01 T01130088  RH  084%=      5-min Rain = 0
KME1 112327Z 19012KT 11/09 A2978 RMK A01 T01130088  RH  084%=      5-min Rain = 0
KME1 112328Z 19010KT 11/09 A2979 RMK A01 T01130087  RH  084%=      5-min Rain = 0
KME1 112329Z 20011KT 11/09 A2979 RMK A01 T01130087  RH  084%=      5-min Rain = 0
KME1 112330Z 20013KT 11/09 A2979 RMK A01 T01130087  RH  084%=      5-min Rain = 0
KME1 112331Z 20010KT 11/09 A2979 RMK A01 T01130087  RH  084%=      5-min Rain = 0
KME1 112332Z 19010KT 11/09 A2979 RMK A01 T01140087  RH  084%=      5-min Rain = 0
KME1 112333Z 20011KT 11/09 A2979 RMK A01 T01130087  RH  084%=      5-min Rain = 0
KME1 112334Z 20011KT 11/09 A2979 RMK A01 T01140087  RH  084%=      5-min Rain = 0
KME1 112335Z 20011KT 11/09 A2979 RMK A01 T01130086  RH  084%=      5-min Rain = 0
KME1 112336Z 20009KT 11/09 A2979 RMK A01 T01130086  RH  084%=      5-min Rain = 0
KME1 112337Z 20009KT 11/09 A298 RMK A01 T01130087  RH  084%=      5-min Rain = 0
KME1 112338Z 20008KT 11/09 A298 RMK A01 T01130087  RH  084%=      5-min Rain = 0
KME1 112339Z 21010KT 11/09 A298 RMK A01 T01130087  RH  084%=      5-min Rain = 0
KME1 112340Z 21009KT 11/09 A298 RMK A01 T01130086  RH  084%=      5-min Rain = 0
KME1 112341Z 20013KT 11/09 A298 RMK A01 T01130086  RH  084%=      5-min Rain = 0
KME1 112342Z 20013KT 11/09 A298 RMK A01 T01130086  RH  083%=      5-min Rain = 0
KME1 112343Z 20012KT 11/09 A298 RMK A01 T01130086  RH  083%=      5-min Rain = 0
KME1 112344Z 19011KT 11/09 A298 RMK A01 T01130086  RH  083%=      5-min Rain = 0
KME1 112345Z 20011KT 11/09 A298 RMK A01 T01130086  RH  084%=      5-min Rain = 0
KME1 112346Z 20010KT 11/09 A298 RMK A01 T01130086  RH  084%=      5-min Rain = 0
KME1 112347Z 20012KT 11/09 A298 RMK A01 T01120086  RH  084%=      5-min Rain = 0
KME1 112348Z 20010KT 11/09 A298 RMK A01 T01120086  RH  084%=      5-min Rain = 0
KME1 112349Z 20011KT 11/09 A298 RMK A01 T01120086  RH  084%=      5-min Rain = 0
KME1 112350Z 20010KT 11/09 A298 RMK A01 T01120086  RH  084%=      5-min Rain = 0
KME1 112351Z 20010KT 11/09 A298 RMK A01 T01110086  RH  084%=      5-min Rain = 0
KME1 112352Z 20009KT 11/09 A298 RMK A01 T01110086  RH  084%=      5-min Rain = 0
KME1 112353Z 20011KT 11/09 A298 RMK A01 T01110086  RH  084%=      5-min Rain = 0
KME1 112354Z 21009KT 11/09 A298 RMK A01 T01110086  RH  084%=      5-min Rain = 0
KME1 112355Z 21011KT 11/09 A298 RMK A01 T01110086  RH  085%=      5-min Rain = 0
KME1 112356Z 20010KT 11/09 A298 RMK A01 T01110086  RH  085%=      5-min Rain = 0
KME1 112357Z 21011KT 11/09 A298 RMK A01 T01110085  RH  084%=      5-min Rain = 0
KME1 112358Z 21011KT 11/09 A298 RMK A01 T01110085  RH  084%=      5-min Rain = 0
KME1 112359Z 21012G17KT 11/09 A298 RMK A01 T01110085  RH  084%=      5-min Rain = 0
KME1 120000Z 21010KT 11/09 A2981 RMK A01 T01110085  RH  084%=      5-min Rain = 0
KME1 120001Z 21011KT 11/09 A2981 RMK A01 T01110085  RH  084%=      5-min Rain = 0
KME1 120002Z 21012KT 11/09 A2981 RMK A01 T01110085  RH  084%=      5-min Rain = 0
KME1 120003Z 20012KT 11/09 A2981 RMK A01 T01110085  RH  084%=      5-min Rain = 0
KME1 120004Z 21011KT 11/08 A2981 RMK A01 T01110084  RH  084%=      5-min Rain = 0
KME1 120005Z 20010KT 11/08 A2981 RMK A01 T01110084  RH  084%=      5-min Rain = 0
KME1 120006Z 20012KT 11/08 A2981 RMK A01 T01110084  RH  084%=      5-min Rain = 0
KME1 120007Z 20010KT 11/08 A2981 RMK A01 T01110084  RH  083%=      5-min Rain = 0
KME1 120008Z 20014KT 11/08 A2981 RMK A01 T01110084  RH  083%=      5-min Rain = 0
KME1 120009Z 20012KT 11/08 A2981 RMK A01 T01110083  RH  083%=      5-min Rain = 0
KME1 120010Z 20012KT 11/08 A2981 RMK A01 T01110083  RH  083%=      5-min Rain = 0
KME1 120011Z 21013KT 11/08 A2981 RMK A01 T01110082  RH  083%=      5-min Rain = 0
KME1 120012Z 21009KT 11/08 A2981 RMK A01 T01110083  RH  083%=      5-min Rain = 0
KME1 120013Z 21012KT 11/08 A2981 RMK A01 T01110083  RH  083%=      5-min Rain = 0
KME1 120014Z 21011G16KT 11/08 A2981 RMK A01 T01100083  RH  083%=      5-min Rain = 0
KME1 120015Z 21012KT 11/08 A2981 RMK A01 T01100082  RH  083%=      5-min Rain = 0
KME1 120016Z 21010KT 11/08 A2982 RMK A01 T01100082  RH  083%=      5-min Rain = 0
KME1 120017Z 22012KT 11/08 A2982 RMK A01 T01100082  RH  083%=      5-min Rain = 0
KME1 120018Z 21013KT 11/08 A2982 RMK A01 T01100082  RH  083%=      5-min Rain = 0
KME1 120019Z 21012KT 11/08 A2982 RMK A01 T01100081  RH  082%=      5-min Rain = 0
KME1 120020Z 21013KT 11/08 A2982 RMK A01 T01100081  RH  082%=      5-min Rain = 0
KME1 120021Z 20010KT 11/08 A2982 RMK A01 T01100081  RH  082%=      5-min Rain = 0
KME1 120022Z 20012KT 11/08 A2982 RMK A01 T01100081  RH  083%=      5-min Rain = 0
KME1 120023Z 21012KT 11/08 A2981 RMK A01 T01090081  RH  082%=      5-min Rain = 0
KME1 120024Z 21010KT 11/08 A2981 RMK A01 T01100081  RH  082%=      5-min Rain = 0
KME1 120025Z 20009KT 11/08 A2981 RMK A01 T01090081  RH  083%=      5-min Rain = 0
KME1 120026Z 21012KT 11/08 A2982 RMK A01 T01090081  RH  083%=      5-min Rain = 0
KME1 120027Z 21012KT 11/08 A2982 RMK A01 T01090080  RH  083%=      5-min Rain = 0
KME1 120028Z 21013KT 11/08 A2982 RMK A01 T01090080  RH  083%=      5-min Rain = 0
KME1 120029Z 21013KT 11/08 A2982 RMK A01 T01090080  RH  082%=      5-min Rain = 0
KME1 120030Z 21012KT 11/08 A2982 RMK A01 T01090079  RH  082%=      5-min Rain = 0
KME1 120031Z 21013G19KT 11/08 A2982 RMK A01 T01090079  RH  082%=      5-min Rain = 0
KME1 120032Z 20014KT 11/08 A2982 RMK A01 T01090079  RH  082%=      5-min Rain = 0
KME1 120033Z 21011KT 11/08 A2982 RMK A01 T01090079  RH  082%=      5-min Rain = 0
KME1 120034Z 21011KT 11/08 A2982 RMK A01 T01090080  RH  082%=      5-min Rain = 0
KME1 120035Z 21011KT 11/08 A2982 RMK A01 T01090080  RH  082%=      5-min Rain = 0
KME1 120036Z 21011KT 11/08 A2982 RMK A01 T01080079  RH  082%=      5-min Rain = 0
KME1 120037Z 21010KT 11/08 A2982 RMK A01 T01080079  RH  082%=      5-min Rain = 0
KME1 120038Z 21011KT 11/08 A2982 RMK A01 T01080079  RH  082%=      5-min Rain = 0
KME1 120039Z 20010KT 11/08 A2982 RMK A01 T01080079  RH  082%=      5-min Rain = 0
KME1 120040Z 21013KT 11/08 A2982 RMK A01 T01080079  RH  083%=      5-min Rain = 0
KME1 120041Z 21011KT 11/08 A2982 RMK A01 T01080079  RH  083%=      5-min Rain = 0
KME1 120042Z 21012KT 11/08 A2983 RMK A01 T01080079  RH  083%=      5-min Rain = 0
KME1 120043Z 21010KT 11/08 A2983 RMK A01 T01080079  RH  082%=      5-min Rain = 0
KME1 120044Z 20010KT 11/08 A2983 RMK A01 T01070079  RH  083%=      5-min Rain = 0
KME1 120045Z 20010KT 11/08 A2982 RMK A01 T01070079  RH  083%=      5-min Rain = 0
KME1 120046Z 21010KT 11/08 A2982 RMK A01 T01080080  RH  083%=      5-min Rain = 0
KME1 120047Z 20010KT 11/08 A2982 RMK A01 T01070079  RH  083%=      5-min Rain = 0
KME1 120048Z 20010KT 11/08 A2982 RMK A01 T01070079  RH  083%=      5-min Rain = 0
KME1 120049Z 20010KT 11/08 A2983 RMK A01 T01060080  RH  083%=      5-min Rain = 0
KME1 120050Z 20011KT 11/08 A2982 RMK A01 T01060079  RH  084%=      5-min Rain = 0
KME1 120051Z 20011KT 11/08 A2982 RMK A01 T01060079  RH  084%=      5-min Rain = 0
KME1 120052Z 21012KT 11/08 A2982 RMK A01 T01060079  RH  084%=      5-min Rain = 0
KME1 120053Z 21011KT 11/08 A2983 RMK A01 T01060079  RH  084%=      5-min Rain = 0
KME1 120054Z 21011KT 11/08 A2983 RMK A01 T01060079  RH  083%=      5-min Rain = 0
KME1 120055Z 20010KT 11/08 A2983 RMK A01 T01060079  RH  083%=      5-min Rain = 0
KME1 120056Z 21011KT 11/08 A2983 RMK A01 T01060079  RH  083%=      5-min Rain = 0
KME1 120057Z 21011KT 11/08 A2983 RMK A01 T01060080  RH  084%=      5-min Rain = 0
KME1 120058Z 20012KT 11/08 A2983 RMK A01 T01060079  RH  084%=      5-min Rain = 0
KME1 120059Z 20013KT 11/08 A2983 RMK A01 T01060079  RH  084%=      5-min Rain = 0
KME1 120100Z 20011KT 11/08 A2983 RMK A01 T01060079  RH  084%=      5-min Rain = 0
KME1 120101Z 21013KT 11/08 A2983 RMK A01 T01060079  RH  084%=      5-min Rain = 0
KME1 120102Z 21012KT 11/08 A2983 RMK A01 T01060079  RH  084%=      5-min Rain = 0
KME1 120103Z 21010KT 11/08 A2983 RMK A01 T01060079  RH  084%=      5-min Rain = 0
KME1 120104Z 21013KT 11/08 A2983 RMK A01 T01060079  RH  084%=      5-min Rain = 0
KME1 120105Z 21011KT 11/08 A2983 RMK A01 T01050079  RH  084%=      5-min Rain = 0
KME1 120106Z 21010KT 11/08 A2983 RMK A01 T01050079  RH  084%=      5-min Rain = 0
KME1 120107Z 21011KT 11/08 A2984 RMK A01 T01050079  RH  084%=      5-min Rain = 0
KME1 120108Z 21011KT 11/08 A2984 RMK A01 T01050079  RH  084%=      5-min Rain = 0
KME1 120109Z 21012KT 10/08 A2984 RMK A01 T01040079  RH  085%=      5-min Rain = 0
KME1 120110Z 20011KT 11/08 A2984 RMK A01 T01050080  RH  085%=      5-min Rain = 0
KME1 120111Z 21011KT 10/08 A2984 RMK A01 T01040079  RH  085%=      5-min Rain = 0
KME1 120112Z 21011KT 10/08 A2984 RMK A01 T01040080  RH  085%=      5-min Rain = 0
KME1 120113Z 20012KT 10/08 A2984 RMK A01 T01040079  RH  085%=      5-min Rain = 0
KME1 120114Z 20013KT 10/08 A2984 RMK A01 T01040079  RH  085%=      5-min Rain = 0
KME1 120115Z 20012KT 10/08 A2984 RMK A01 T01040079  RH  085%=      5-min Rain = 0
KME1 120116Z 21011KT 10/08 A2984 RMK A01 T01040079  RH  085%=      5-min Rain = 0
KME1 120117Z 21011KT 10/08 A2984 RMK A01 T01040079  RH  085%=      5-min Rain = 0
KME1 120118Z 21011KT 10/08 A2984 RMK A01 T01030079  RH  085%=      5-min Rain = 0
KME1 120119Z 20012KT 10/08 A2984 RMK A01 T01030080  RH  085%=      5-min Rain = 0
KME1 120120Z 20011KT 10/08 A2984 RMK A01 T01030080  RH  085%=      5-min Rain = 0
KME1 120121Z 20012KT 10/08 A2984 RMK A01 T01030080  RH  085%=      5-min Rain = 0
KME1 120122Z 20011KT 10/08 A2984 RMK A01 T01030079  RH  085%=      5-min Rain = 0
KME1 120123Z 20011KT 10/08 A2984 RMK A01 T01030080  RH  086%=      5-min Rain = 0
KME1 120124Z 21010KT 10/08 A2984 RMK A01 T01020079  RH  086%=      5-min Rain = 0
KME1 120125Z 20013KT 10/08 A2984 RMK A01 T01020080  RH  086%=      5-min Rain = 0
KME1 120126Z 20012KT 10/08 A2984 RMK A01 T01020080  RH  086%=      5-min Rain = 0
KME1 120127Z 20014KT 10/08 A2984 RMK A01 T01020079  RH  086%=      5-min Rain = 0
KME1 120128Z 20012KT 10/08 A2984 RMK A01 T01020079  RH  086%=      5-min Rain = 0
KME1 120129Z 21011G16KT 10/08 A2984 RMK A01 T01020079  RH  086%=      5-min Rain = 0
KME1 120130Z 21011G16KT 10/08 A2984 RMK A01 T01020079  RH  086%=      5-min Rain = 0
KME1 120131Z 21013G18KT 10/08 A2984 RMK A01 T01010079  RH  086%=      5-min Rain = 0
KME1 120132Z 20013KT 10/08 A2985 RMK A01 T01010079  RH  086%=      5-min Rain = 0
KME1 120133Z 20014KT 10/08 A2985 RMK A01 T01010079  RH  086%=      5-min Rain = 0
KME1 120134Z 20013KT 10/08 A2985 RMK A01 T01010079  RH  086%=      5-min Rain = 0
KME1 120135Z 21013KT 10/08 A2985 RMK A01 T01010079  RH  086%=      5-min Rain = 0
KME1 120136Z 21013KT 10/08 A2985 RMK A01 T01010079  RH  086%=      5-min Rain = 0
KME1 120137Z 21012KT 10/08 A2985 RMK A01 T01010078  RH  086%=      5-min Rain = 0
KME1 120138Z 20012KT 10/08 A2985 RMK A01 T01010078  RH  086%=      5-min Rain = 0
KME1 120139Z 20012KT 10/08 A2985 RMK A01 T01010078  RH  086%=      5-min Rain = 0
KME1 120140Z 21011KT 10/08 A2985 RMK A01 T01010078  RH  086%=      5-min Rain = 0
KME1 120141Z 20013G18KT 10/08 A2984 RMK A01 T01010078  RH  086%=      5-min Rain = 0
KME1 120142Z 20011KT 10/08 A2985 RMK A01 T01010078  RH  086%=      5-min Rain = 0
KME1 120143Z 21011KT 10/08 A2985 RMK A01 T01010078  RH  086%=      5-min Rain = 0
KME1 120144Z 21012KT 10/08 A2985 RMK A01 T01000077  RH  086%=      5-min Rain = 0
KME1 120145Z 20012KT 10/08 A2985 RMK A01 T01000077  RH  086%=      5-min Rain = 0
KME1 120146Z 21012KT 10/08 A2985 RMK A01 T01000077  RH  086%=      5-min Rain = 0
KME1 120147Z 20011KT 10/08 A2985 RMK A01 T01000077  RH  085%=      5-min Rain = 0
KME1 120148Z 21011KT 10/08 A2985 RMK A01 T01000077  RH  085%=      5-min Rain = 0
KME1 120149Z 21010KT 10/08 A2985 RMK A01 T01000077  RH  085%=      5-min Rain = 0
KME1 120150Z 21011KT 10/08 A2985 RMK A01 T01000077  RH  086%=      5-min Rain = 0
KME1 120151Z 21012KT 10/08 A2985 RMK A01 T00990077  RH  086%=      5-min Rain = 0
KME1 120152Z 21011KT 10/08 A2985 RMK A01 T00990076  RH  085%=      5-min Rain = 0
KME1 120153Z 21012KT 10/08 A2986 RMK A01 T00990076  RH  086%=      5-min Rain = 0
KME1 120154Z 21011KT 10/08 A2986 RMK A01 T00990076  RH  086%=      5-min Rain = 0
KME1 120155Z 21012KT 10/08 A2986 RMK A01 T00990076  RH  086%=      5-min Rain = 0
KME1 120156Z 21012KT 10/08 A2986 RMK A01 T00990076  RH  085%=      5-min Rain = 0
KME1 120157Z 21012KT 10/08 A2986 RMK A01 T01000076  RH  085%=      5-min Rain = 0
KME1 120158Z 22010KT 10/08 A2986 RMK A01 T01000075  RH  085%=      5-min Rain = 0
KME1 120159Z 21011KT 10/08 A2986 RMK A01 T01000075  RH  084%=      5-min Rain = 0
KME1 120200Z 21010KT 10/08 A2986 RMK A01 T01000075  RH  084%=      5-min Rain = 0
KME1 120201Z 21010KT 10/08 A2986 RMK A01 T01000075  RH  084%=      5-min Rain = 0
KME1 120202Z 21009KT 10/08 A2986 RMK A01 T01000075  RH  084%=      5-min Rain = 0
KME1 120203Z 22010KT 10/08 A2986 RMK A01 T01000075  RH  084%=      5-min Rain = 0
KME1 120204Z 21009KT 10/08 A2987 RMK A01 T01000075  RH  084%=      5-min Rain = 0
KME1 120205Z 22011KT 10/07 A2987 RMK A01 T01000074  RH  084%=      5-min Rain = 0
KME1 120206Z 22012KT 10/07 A2987 RMK A01 T01000074  RH  084%=      5-min Rain = 0
KME1 120207Z 21012KT 10/07 A2987 RMK A01 T01010074  RH  083%=      5-min Rain = 0
KME1 120208Z 22011KT 10/07 A2987 RMK A01 T01020074  RH  083%=      5-min Rain = 0
KME1 120209Z 22010KT 10/07 A2987 RMK A01 T01020074  RH  083%=      5-min Rain = 0
KME1 120210Z 22009KT 10/07 A2988 RMK A01 T01020073  RH  083%=      5-min Rain = 0
KME1 120211Z 21011KT 10/07 A2988 RMK A01 T01020073  RH  082%=      5-min Rain = 0
KME1 120212Z 23012KT 10/07 A2988 RMK A01 T01020073  RH  082%=      5-min Rain = 0
KME1 120213Z 22011KT 10/07 A2988 RMK A01 T01020073  RH  082%=      5-min Rain = 0
KME1 120214Z 22012KT 10/07 A2988 RMK A01 T01020072  RH  082%=      5-min Rain = 0
KME1 120215Z 22012KT 10/07 A2988 RMK A01 T01020072  RH  082%=      5-min Rain = 0
KME1 120216Z 22011KT 10/07 A2988 RMK A01 T01030072  RH  081%=      5-min Rain = 0
KME1 120217Z 23012KT 10/07 A2988 RMK A01 T01030072  RH  081%=      5-min Rain = 0
KME1 120218Z 23009KT 10/07 A2989 RMK A01 T01030072  RH  081%=      5-min Rain = 0
KME1 120219Z 23010KT 10/07 A2989 RMK A01 T01020072  RH  082%=      5-min Rain = 0
KME1 120220Z 21010KT 10/07 A2988 RMK A01 T01020072  RH  082%=      5-min Rain = 0
KME1 120221Z 22010KT 10/07 A2988 RMK A01 T01020072  RH  082%=      5-min Rain = 0
KME1 120222Z 22012G17KT 10/07 A2988 RMK A01 T01010072  RH  082%=      5-min Rain = 0
KME1 120223Z 22010KT 10/07 A2989 RMK A01 T01010072  RH  082%=      5-min Rain = 0
KME1 120224Z 23010KT 10/07 A2989 RMK A01 T01010071  RH  082%=      5-min Rain = 0
KME1 120225Z 22011KT 10/07 A2989 RMK A01 T01010071  RH  082%=      5-min Rain = 0
KME1 120226Z 22011KT 10/07 A2989 RMK A01 T01010071  RH  082%=      5-min Rain = 0
KME1 120227Z 22011KT 10/07 A2989 RMK A01 T01010071  RH  082%=      5-min Rain = 0
KME1 120228Z 22011KT 10/07 A2989 RMK A01 T01000071  RH  082%=      5-min Rain = 0
KME1 120229Z 21011KT 10/07 A2989 RMK A01 T01000071  RH  082%=      5-min Rain = 0
KME1 120230Z 22012G17KT 10/07 A2989 RMK A01 T01000071  RH  082%=      5-min Rain = 0
KME1 120231Z 22010KT 10/07 A299 RMK A01 T01010070  RH  081%=      5-min Rain = 0
KME1 120232Z 21011KT 10/07 A299 RMK A01 T01010070  RH  081%=      5-min Rain = 0
KME1 120233Z 22010KT 10/07 A299 RMK A01 T01010070  RH  081%=      5-min Rain = 0
KME1 120234Z 22010KT 10/07 A299 RMK A01 T01000069  RH  081%=      5-min Rain = 0
KME1 120235Z 22008KT 10/07 A299 RMK A01 T01000069  RH  081%=      5-min Rain = 0
KME1 120236Z 23008KT 10/07 A299 RMK A01 T01000069  RH  081%=      5-min Rain = 0
KME1 120237Z 22011G16KT 10/07 A299 RMK A01 T00990069  RH  082%=      5-min Rain = 0
KME1 120238Z 23011G17KT 10/07 A299 RMK A01 T00990068  RH  081%=      5-min Rain = 0
KME1 120239Z 22009KT 10/07 A299 RMK A01 T01000068  RH  081%=      5-min Rain = 0
KME1 120240Z 22009KT 10/07 A299 RMK A01 T00990068  RH  081%=      5-min Rain = 0
KME1 120241Z 23011KT 10/07 A2991 RMK A01 T00990068  RH  081%=      5-min Rain = 0
KME1 120242Z 23009KT 10/07 A2991 RMK A01 T00990068  RH  081%=      5-min Rain = 0
KME1 120243Z 23008KT 10/07 A2991 RMK A01 T00980068  RH  081%=      5-min Rain = 0
KME1 120244Z 22010KT 10/07 A2991 RMK A01 T00980068  RH  082%=      5-min Rain = 0
KME1 120245Z 23010KT 10/07 A2991 RMK A01 T00980068  RH  081%=      5-min Rain = 0
KME1 120246Z 23009KT 10/07 A2991 RMK A01 T00990068  RH  081%=      5-min Rain = 0
KME1 120247Z 23010KT 10/07 A2991 RMK A01 T00990068  RH  081%=      5-min Rain = 0
KME1 120248Z 23008KT 10/07 A2991 RMK A01 T00990067  RH  081%=      5-min Rain = 0
KME1 120249Z 23010KT 10/07 A2991 RMK A01 T00980067  RH  081%=      5-min Rain = 0
KME1 120250Z 24009KT 10/07 A2992 RMK A01 T00980067  RH  081%=      5-min Rain = 0
KME1 120251Z 24009KT 10/07 A2993 RMK A01 T00980067  RH  081%=      5-min Rain = 0
KME1 120252Z 26007KT 10/07 A2993 RMK A01 T00980067  RH  081%=      5-min Rain = 0
KME1 120253Z 30009KT 10/07 A2994 RMK A01 T00980067  RH  081%=      5-min Rain = 0
KME1 120254Z 30011KT 10/07 A2995 RMK A01 T00980066  RH  080%=      5-min Rain = 0
KME1 120255Z 31008KT 10/07 A2995 RMK A01 T00990065  RH  079%=      5-min Rain = 0
KME1 120256Z 31009KT 10/07 A2995 RMK A01 T00990065  RH  079%=      5-min Rain = 0
KME1 120257Z 30016G22KT 10/06 A2995 RMK A01 T01010063  RH  077%=      5-min Rain = 0
KME1 120258Z 29015G20KT 11/06 A2995 RMK A01 T01080060  RH  073%=      5-min Rain = 0
KME1 120259Z 30013G18KT 11/06 A2995 RMK A01 T01120060  RH  070%=      5-min Rain = 0
KME1 120300Z 30012KT 11/06 A2995 RMK A01 T01130060  RH  070%=      5-min Rain = 0
KME1 120301Z 30010KT 11/06 A2995 RMK A01 T01130060  RH  070%=      5-min Rain = 0
KME1 120302Z 30010KT 11/06 A2995 RMK A01 T01120061  RH  071%=      5-min Rain = 0
KME1 120303Z 30010KT 11/06 A2995 RMK A01 T01110061  RH  071%=      5-min Rain = 0
KME1 120304Z 29009KT 11/06 A2995 RMK A01 T01100061  RH  072%=      5-min Rain = 0
KME1 120305Z 29008KT 11/06 A2995 RMK A01 T01090061  RH  072%=      5-min Rain = 0
KME1 120306Z 29006KT 11/06 A2995 RMK A01 T01090060  RH  072%=      5-min Rain = 0
KME1 120307Z 28007KT 11/06 A2996 RMK A01 T01080060  RH  072%=      5-min Rain = 0
KME1 120308Z 28006KT 11/06 A2996 RMK A01 T01080060  RH  072%=      5-min Rain = 0
KME1 120309Z 28007KT 11/06 A2996 RMK A01 T01070059  RH  072%=      5-min Rain = 0
KME1 120310Z 28006KT 11/06 A2996 RMK A01 T01070059  RH  072%=      5-min Rain = 0
KME1 120311Z 29007KT 11/06 A2996 RMK A01 T01060059  RH  072%=      5-min Rain = 0
KME1 120312Z 28006KT 11/06 A2996 RMK A01 T01060058  RH  072%=      5-min Rain = 0
KME1 120313Z 27005KT 11/06 A2996 RMK A01 T01060058  RH  072%=      5-min Rain = 0
KME1 120314Z 29010KT 11/05 A2996 RMK A01 T01050054  RH  071%=      5-min Rain = 0
KME1 120315Z 28009KT 11/05 A2996 RMK A01 T01050048  RH  068%=      5-min Rain = 0
KME1 120316Z 28010KT 11/05 A2996 RMK A01 T01070046  RH  066%=      5-min Rain = 0
KME1 120317Z 27006KT 11/05 A2996 RMK A01 T01070048  RH  067%=      5-min Rain = 0
KME1 120318Z 29008KT 11/05 A2996 RMK A01 T01070050  RH  068%=      5-min Rain = 0
KME1 120319Z 28007KT 11/05 A2996 RMK A01 T01060050  RH  068%=      5-min Rain = 0
KME1 120320Z 29008KT 11/05 A2996 RMK A01 T01060049  RH  068%=      5-min Rain = 0
KME1 120321Z 29008KT 11/05 A2996 RMK A01 T01060049  RH  068%=      5-min Rain = 0
KME1 120322Z 29008KT 11/05 A2996 RMK A01 T01050049  RH  068%=      5-min Rain = 0
KME1 120323Z 29007KT 10/05 A2996 RMK A01 T01040049  RH  069%=      5-min Rain = 0
KME1 120324Z 28006KT 10/05 A2997 RMK A01 T01030049  RH  069%=      5-min Rain = 0
KME1 120325Z 29007KT 10/05 A2996 RMK A01 T01020047  RH  069%=      5-min Rain = 0
KME1 120326Z 29006KT 10/05 A2996 RMK A01 T01000045  RH  069%=      5-min Rain = 0
KME1 120327Z 29005KT 10/04 A2996 RMK A01 T01000043  RH  068%=      5-min Rain = 0
KME1 120328Z 30006KT 10/04 A2996 RMK A01 T00990040  RH  067%=      5-min Rain = 0
KME1 120329Z 29008KT 10/03 A2996 RMK A01 T00980034  RH  064%=      5-min Rain = 0
KME1 120330Z 30009KT 10/03 A2996 RMK A01 T00980027  RH  061%=      5-min Rain = 0
KME1 120331Z 30008KT 10/02 A2996 RMK A01 T00990018  RH  057%=      5-min Rain = 0
KME1 120332Z 29012KT 10/01 A2996 RMK A01 T00990011  RH  054%=      5-min Rain = 0
KME1 120333Z 29008KT 10/00 A2996 RMK A01 T01000004  RH  051%=      5-min Rain = 0
KME1 120334Z 29010KT 10/00 A2997 RMK A01 T01000003  RH  051%=      5-min Rain = 0
KME1 120335Z 30009KT 10/M00 A2997 RMK A01 T01001002  RH  049%=      5-min Rain = 0
KME1 120336Z 30008KT 10/M00 A2997 RMK A01 T00991003  RH  049%=      5-min Rain = 0
KME1 120337Z 30011KT 10/M01 A2997 RMK A01 T00991007  RH  048%=      5-min Rain = 0
KME1 120338Z 31011KT 10/M01 A2997 RMK A01 T00991009  RH  047%=      5-min Rain = 0
KME1 120339Z 30009KT 10/M01 A2997 RMK A01 T00981012  RH  046%=      5-min Rain = 0
KME1 120340Z 30010KT 10/M01 A2997 RMK A01 T00981013  RH  046%=      5-min Rain = 0
KME1 120341Z 30008G13KT 10/M01 A2997 RMK A01 T00971013  RH  046%=      5-min Rain = 0
KME1 120342Z 30009KT 10/M01 A2997 RMK A01 T00971014  RH  046%=      5-min Rain = 0
KME1 120343Z 30009KT 10/M02 A2997 RMK A01 T00961016  RH  045%=      5-min Rain = 0
KME1 120344Z 30009KT 10/M02 A2997 RMK A01 T00961017  RH  045%=      5-min Rain = 0
KME1 120345Z 30010G15KT 10/M02 A2997 RMK A01 T00961020  RH  044%=      5-min Rain = 0
KME1 120346Z 30011KT 10/M02 A2997 RMK A01 T00961022  RH  044%=      5-min Rain = 0
KME1 120347Z 29011G16KT 10/M02 A2997 RMK A01 T00961024  RH  043%=      5-min Rain = 0
KME1 120348Z 30012G17KT 10/M03 A2997 RMK A01 T00971026  RH  042%=      5-min Rain = 0
KME1 120349Z 30010KT 10/M03 A2997 RMK A01 T00971025  RH  042%=      5-min Rain = 0
KME1 120350Z 30010KT 10/M03 A2997 RMK A01 T00971027  RH  042%=      5-min Rain = 0
KME1 120351Z 30012G17KT 10/M03 A2998 RMK A01 T00961029  RH  041%=      5-min Rain = 0
KME1 120352Z 30011KT 10/M03 A2998 RMK A01 T00961033  RH  040%=      5-min Rain = 0
KME1 120353Z 30011G18KT 10/M04 A2998 RMK A01 T00961036  RH  039%=      5-min Rain = 0
KME1 120354Z 30012G18KT 10/M04 A2998 RMK A01 T00961038  RH  038%=      5-min Rain = 0
KME1 120355Z 30012KT 10/M04 A2998 RMK A01 T00971041  RH  038%=      5-min Rain = 0
KME1 120356Z 30010G16KT 10/M04 A2998 RMK A01 T00981040  RH  038%=      5-min Rain = 0
KME1 120357Z 30012KT 10/M04 A2998 RMK A01 T00971043  RH  037%=      5-min Rain = 0
KME1 120358Z 29011KT 10/M05 A2998 RMK A01 T00981046  RH  036%=      5-min Rain = 0
KME1 120359Z 29012G17KT 10/M05 A2998 RMK A01 T00981047  RH  036%=      5-min Rain = 0
KME1 120400Z 30011KT 10/M05 A2998 RMK A01 T00981046  RH  036%=      5-min Rain = 0
KME1 120401Z 30012KT 10/M05 A2999 RMK A01 T00981048  RH  035%=      5-min Rain = 0
KME1 120402Z 30010KT 10/M05 A2999 RMK A01 T00981048  RH  035%=      5-min Rain = 0
KME1 120403Z 30011KT 10/M05 A2999 RMK A01 T00981047  RH  036%=      5-min Rain = 0
KME1 120404Z 30012G17KT 10/M05 A2999 RMK A01 T00971049  RH  036%=      5-min Rain = 0
KME1 120405Z 30011KT 10/M05 A2999 RMK A01 T00961049  RH  035%=      5-min Rain = 0
KME1 120406Z 30013KT 10/M05 A2999 RMK A01 T00971051  RH  035%=      5-min Rain = 0
KME1 120407Z 30012KT 10/M05 A2999 RMK A01 T00971051  RH  035%=      5-min Rain = 0
KME1 120408Z 30009KT 10/M05 A30 RMK A01 T00971051  RH  035%=      5-min Rain = 0
KME1 120409Z 30011KT 10/M05 A30 RMK A01 T00971050  RH  035%=      5-min Rain = 0
KME1 120410Z 29010KT 10/M05 A30 RMK A01 T00961050  RH  035%=      5-min Rain = 0
KME1 120411Z 29010KT 10/M05 A30 RMK A01 T00961051  RH  035%=      5-min Rain = 0
KME1 120412Z 29010KT 10/M05 A30 RMK A01 T00961052  RH  035%=      5-min Rain = 0
KME1 120413Z 29010KT 10/M05 A30 RMK A01 T00961051  RH  035%=      5-min Rain = 0
KME1 120414Z 30010KT 10/M05 A30 RMK A01 T00951052  RH  035%=      5-min Rain = 0
KME1 120415Z 29008KT 10/M05 A30 RMK A01 T00951054  RH  035%=      5-min Rain = 0
KME1 120416Z 30009KT 10/M05 A30 RMK A01 T00951052  RH  035%=      5-min Rain = 0
KME1 120417Z 30007KT 10/M05 A3001 RMK A01 T00951053  RH  035%=      5-min Rain = 0
KME1 120418Z 30008KT 09/M05 A3001 RMK A01 T00941051  RH  036%=      5-min Rain = 0
KME1 120419Z 30009KT 09/M05 A3001 RMK A01 T00921052  RH  036%=      5-min Rain = 0
KME1 120420Z 30009KT 09/M05 A3001 RMK A01 T00921051  RH  036%=      5-min Rain = 0
KME1 120421Z 30009KT 09/M05 A3001 RMK A01 T00921050  RH  036%=      5-min Rain = 0
KME1 120422Z 30008KT 09/M05 A3002 RMK A01 T00901050  RH  037%=      5-min Rain = 0
KME1 120423Z 30008KT 09/M05 A3002 RMK A01 T00901052  RH  036%=      5-min Rain = 0
KME1 120424Z 30008KT 09/M05 A3002 RMK A01 T00901052  RH  036%=      5-min Rain = 0
KME1 120425Z 30008KT 09/M06 A3002 RMK A01 T00901055  RH  036%=      5-min Rain = 0
KME1 120426Z 29008KT 09/M05 A3002 RMK A01 T00911053  RH  036%=      5-min Rain = 0
KME1 120427Z 29008KT 09/M06 A3002 RMK A01 T00911055  RH  035%=      5-min Rain = 0
KME1 120428Z 29007KT 09/M06 A3002 RMK A01 T00911056  RH  035%=      5-min Rain = 0
KME1 120429Z 29007KT 09/M06 A3001 RMK A01 T00911058  RH  034%=      5-min Rain = 0
KME1 120430Z 29009KT 09/M06 A3001 RMK A01 T00921060  RH  034%=      5-min Rain = 0
KME1 120431Z 29006G11KT 09/M06 A3002 RMK A01 T00931062  RH  033%=      5-min Rain = 0
KME1 120432Z 28009KT 09/M06 A3002 RMK A01 T00931061  RH  033%=      5-min Rain = 0
KME1 120433Z 29007KT 09/M06 A3002 RMK A01 T00931063  RH  033%=      5-min Rain = 0
KME1 120434Z 29007KT 09/M06 A3002 RMK A01 T00921062  RH  033%=      5-min Rain = 0
KME1 120435Z 29007KT 09/M06 A3002 RMK A01 T00911063  RH  033%=      5-min Rain = 0
KME1 120436Z 29008KT 09/M06 A3002 RMK A01 T00911063  RH  033%=      5-min Rain = 0
KME1 120437Z 29007KT 09/M06 A3002 RMK A01 T00911064  RH  033%=      5-min Rain = 0
KME1 120438Z 29006KT 09/M06 A3002 RMK A01 T00901063  RH  033%=      5-min Rain = 0
KME1 120439Z 29006KT 09/M06 A3002 RMK A01 T00891062  RH  034%=      5-min Rain = 0
KME1 120440Z 29006KT 09/M06 A3003 RMK A01 T00881063  RH  034%=      5-min Rain = 0
KME1 120441Z 29005KT 09/M06 A3003 RMK A01 T00881063  RH  034%=      5-min Rain = 0
KME1 120442Z 29006KT 09/M06 A3003 RMK A01 T00871063  RH  034%=      5-min Rain = 0
KME1 120443Z 29006KT 09/M06 A3003 RMK A01 T00871064  RH  034%=      5-min Rain = 0
KME1 120444Z 29006KT 09/M06 A3003 RMK A01 T00861062  RH  034%=      5-min Rain = 0
KME1 120445Z 28005KT 09/M06 A3003 RMK A01 T00851063  RH  034%=      5-min Rain = 0
KME1 120446Z 28005KT 08/M06 A3003 RMK A01 T00841063  RH  035%=      5-min Rain = 0
KME1 120447Z 28006KT 08/M06 A3003 RMK A01 T00841064  RH  035%=      5-min Rain = 0
KME1 120448Z 28005KT 08/M07 A3003 RMK A01 T00831065  RH  034%=      5-min Rain = 0
KME1 120449Z 29005KT 08/M06 A3003 RMK A01 T00831063  RH  035%=      5-min Rain = 0
KME1 120450Z 28006KT 08/M07 A3003 RMK A01 T00821065  RH  035%=      5-min Rain = 0
KME1 120451Z 28004KT 08/M07 A3003 RMK A01 T00821067  RH  034%=      5-min Rain = 0
KME1 120452Z 27006KT 08/M07 A3003 RMK A01 T00821065  RH  035%=      5-min Rain = 0
KME1 120453Z 27006KT 08/M07 A3003 RMK A01 T00811065  RH  035%=      5-min Rain = 0
KME1 120454Z 27006KT 08/M07 A3003 RMK A01 T00811067  RH  034%=      5-min Rain = 0
KME1 120455Z 27005KT 08/M07 A3003 RMK A01 T00821068  RH  034%=      5-min Rain = 0
KME1 120456Z 28006KT 08/M07 A3003 RMK A01 T00821066  RH  034%=      5-min Rain = 0
KME1 120457Z 28007KT 08/M07 A3003 RMK A01 T00821068  RH  034%=      5-min Rain = 0
KME1 120458Z 28006KT 08/M07 A3003 RMK A01 T00831068  RH  034%=      5-min Rain = 0
KME1 120459Z 28006KT 08/M07 A3003 RMK A01 T00831068  RH  034%=      5-min Rain = 0
KME1 120500Z 29010KT 08/M07 A3003 RMK A01 T00831070  RH  033%=      5-min Rain = 0
KME1 120501Z 29009KT 09/M07 A3003 RMK A01 T00861072  RH  032%=      5-min Rain = 0
KME1 120502Z 28008KT 09/M07 A3003 RMK A01 T00881070  RH  032%=      5-min Rain = 0
KME1 120503Z 29007KT 09/M07 A3003 RMK A01 T00871070  RH  032%=      5-min Rain = 0
KME1 120504Z 29008KT 09/M07 A3003 RMK A01 T00871071  RH  032%=      5-min Rain = 0
KME1 120505Z 29008KT 09/M07 A3003 RMK A01 T00881072  RH  031%=      5-min Rain = 0
KME1 120506Z 29007KT 09/M07 A3003 RMK A01 T00891072  RH  031%=      5-min Rain = 0
KME1 120507Z 28008KT 09/M07 A3003 RMK A01 T00901072  RH  031%=      5-min Rain = 0
KME1 120508Z 28008KT 09/M07 A3003 RMK A01 T00891072  RH  031%=      5-min Rain = 0
KME1 120509Z 29008KT 09/M07 A3003 RMK A01 T00901073  RH  031%=      5-min Rain = 0
KME1 120510Z 28008KT 09/M07 A3004 RMK A01 T00901073  RH  031%=      5-min Rain = 0
KME1 120511Z 28007KT 09/M07 A3003 RMK A01 T00911074  RH  030%=      5-min Rain = 0
KME1 120512Z 28007KT 09/M07 A3003 RMK A01 T00911073  RH  031%=      5-min Rain = 0
KME1 120513Z 28009KT 09/M07 A3003 RMK A01 T00901072  RH  031%=      5-min Rain = 0
KME1 120514Z 28007KT 09/M07 A3004 RMK A01 T00891072  RH  031%=      5-min Rain = 0
KME1 120515Z 27007KT 09/M07 A3004 RMK A01 T00891071  RH  032%=      5-min Rain = 0
KME1 120516Z 28009KT 09/M07 A3004 RMK A01 T00881072  RH  032%=      5-min Rain = 0
KME1 120517Z 28009KT 09/M08 A3004 RMK A01 T00881075  RH  031%=      5-min Rain = 0
KME1 120518Z 29009KT 09/M07 A3004 RMK A01 T00901074  RH  031%=      5-min Rain = 0
KME1 120519Z 29010KT 09/M08 A3004 RMK A01 T00901075  RH  030%=      5-min Rain = 0
KME1 120520Z 28010KT 09/M08 A3004 RMK A01 T00911076  RH  030%=      5-min Rain = 0
KME1 120521Z 29009G14KT 09/M08 A3004 RMK A01 T00911077  RH  030%=      5-min Rain = 0
KME1 120522Z 28009KT 09/M08 A3004 RMK A01 T00911077  RH  030%=      5-min Rain = 0
KME1 120523Z 28010KT 09/M08 A3004 RMK A01 T00911077  RH  030%=      5-min Rain = 0
KME1 120524Z 29010KT 09/M08 A3004 RMK A01 T00911078  RH  029%=      5-min Rain = 0
KME1 120525Z 29010KT 09/M08 A3004 RMK A01 T00921077  RH  030%=      5-min Rain = 0
KME1 120526Z 29010G15KT 09/M08 A3004 RMK A01 T00921079  RH  029%=      5-min Rain = 0
KME1 120527Z 29008KT 09/M08 A3004 RMK A01 T00931079  RH  029%=      5-min Rain = 0
KME1 120528Z 28008KT 09/M08 A3004 RMK A01 T00931077  RH  029%=      5-min Rain = 0
KME1 120529Z 29009KT 09/M08 A3004 RMK A01 T00921078  RH  029%=      5-min Rain = 0
KME1 120530Z 29009KT 09/M08 A3004 RMK A01 T00921077  RH  030%=      5-min Rain = 0
KME1 120531Z 29009KT 09/M08 A3004 RMK A01 T00911079  RH  029%=      5-min Rain = 0
KME1 120532Z 29009KT 09/M08 A3004 RMK A01 T00911081  RH  029%=      5-min Rain = 0
KME1 120533Z 29008KT 09/M08 A3004 RMK A01 T00911079  RH  029%=      5-min Rain = 0
KME1 120534Z 29009KT 09/M08 A3004 RMK A01 T00911080  RH  029%=      5-min Rain = 0
KME1 120535Z 29008KT 09/M08 A3004 RMK A01 T00911080  RH  029%=      5-min Rain = 0
KME1 120536Z 29009KT 09/M08 A3004 RMK A01 T00911080  RH  029%=      5-min Rain = 0
KME1 120537Z 30010KT 09/M08 A3004 RMK A01 T00911079  RH  029%=      5-min Rain = 0
KME1 120538Z 29009KT 09/M08 A3004 RMK A01 T00901080  RH  029%=      5-min Rain = 0
KME1 120539Z 30009KT 09/M08 A3004 RMK A01 T00901081  RH  029%=      5-min Rain = 0
KME1 120540Z 29009KT 09/M08 A3004 RMK A01 T00901079  RH  029%=      5-min Rain = 0
KME1 120541Z 29009KT 09/M08 A3004 RMK A01 T00891079  RH  030%=      5-min Rain = 0
KME1 120542Z 29009KT 09/M08 A3004 RMK A01 T00891079  RH  030%=      5-min Rain = 0
KME1 120543Z 28007KT 09/M08 A3004 RMK A01 T00891078  RH  030%=      5-min Rain = 0
KME1 120544Z 29008G14KT 09/M08 A3004 RMK A01 T00871077  RH  031%=      5-min Rain = 0
KME1 120545Z 28009KT 09/M08 A3004 RMK A01 T00871077  RH  030%=      5-min Rain = 0
KME1 120546Z 28007KT 09/M08 A3004 RMK A01 T00871078  RH  030%=      5-min Rain = 0
KME1 120547Z 28008KT 09/M08 A3005 RMK A01 T00861077  RH  031%=      5-min Rain = 0
KME1 120548Z 29007KT 09/M08 A3005 RMK A01 T00861077  RH  031%=      5-min Rain = 0
KME1 120549Z 29009KT 09/M08 A3005 RMK A01 T00851077  RH  031%=      5-min Rain = 0
KME1 120550Z 28009KT 09/M08 A3005 RMK A01 T00851078  RH  031%=      5-min Rain = 0
KME1 120551Z 28006KT 09/M08 A3005 RMK A01 T00851076  RH  031%=      5-min Rain = 0
KME1 120552Z 28009KT 08/M08 A3005 RMK A01 T00841075  RH  032%=      5-min Rain = 0
KME1 120553Z 28008KT 08/M08 A3005 RMK A01 T00831077  RH  032%=      5-min Rain = 0
KME1 120554Z 29009KT 08/M08 A3005 RMK A01 T00831076  RH  032%=      5-min Rain = 0
KME1 120555Z 28007KT 08/M08 A3005 RMK A01 T00821076  RH  032%=      5-min Rain = 0
KME1 120556Z 28008KT 08/M08 A3005 RMK A01 T00821075  RH  032%=      5-min Rain = 0
KME1 120557Z 28008KT 08/M08 A3005 RMK A01 T00801075  RH  032%=      5-min Rain = 0
KME1 120558Z 28007KT 08/M07 A3005 RMK A01 T00801074  RH  033%=      5-min Rain = 0
KME1 120559Z 28007KT 08/M07 A3005 RMK A01 T00781074  RH  033%=      5-min Rain = 0

Page generated in 0.1221 seconds.